CPA233 LIMC-VHHH
Flight info
| Callsign | CPA233 |
|---|---|
| Flight time | N/A |
| Altitude | 37000 |
| Route | OSKOR DCT NEVNI DCT NOBMI DCT ELTAR DCT IDREK DCT LAPAB DCT PEVAL DCT OKSIG DCT VELIP DCT FLR DCT LUGEB DCT UDROS UM859 KARDE UN644 ROLIN DCT FOQUS DCT LAGAS/N0492F390 DCT DISKA M737 VERCA M747 SUBUT T916 BALUN/K0900F390 T916 KUNAS N193 SR L163 TISIB L141 KAMUD/K0895S1190 W186 ISBEB/K0898S1250 W186 SADAN Y1 OMBON W245 OVRAL B330 KWE W181 DUDIT A599 POU R473 SIERA |
| Aircraft | A359/H-SDE2E3GHIJ3J4J5LM1ORWXY/LB1D1 |
Departure
| Time | 2026-05-05 16:56 |
|---|---|
| Airport | Milan Malpensa International Airport (LIMC) |
Arrival
| Time | N/A |
|---|---|
| Airport | Hong Kong International Airport (VHHH) |
| Time | Latitude | Longitude | Altitude | Speed | Heading |
|---|---|---|---|---|---|
| 2026-05-05 15:48 | 45.62724 | 8.71688 | 723 ft | 0 kts | 326° |
| 2026-05-05 16:39 | 45.62714 | 8.71698 | 724 ft | 4 kts | 332° |
| 2026-05-05 16:40 | 45.62689 | 8.71713 | 723 ft | 4 kts | 342° |
| 2026-05-05 16:40 | 45.62666 | 8.71724 | 723 ft | 2 kts | 336° |
| 2026-05-05 16:40 | 45.62647 | 8.71742 | 722 ft | 4 kts | 292° |
| 2026-05-05 16:40 | 45.62645 | 8.71778 | 721 ft | 4 kts | 260° |
| 2026-05-05 16:41 | 45.62647 | 8.71791 | 721 ft | 3 kts | 260° |
| 2026-05-05 16:41 | 45.62647 | 8.71797 | 722 ft | 3 kts | 251° |
| 2026-05-05 16:41 | 45.62655 | 8.71821 | 723 ft | 3 kts | 230° |
| 2026-05-05 16:42 | 45.62670 | 8.71838 | 723 ft | 3 kts | 191° |
| 2026-05-05 16:42 | 45.62675 | 8.71840 | 723 ft | 0 kts | 180° |
| 2026-05-05 16:46 | 45.62660 | 8.71840 | 722 ft | 6 kts | 180° |
| 2026-05-05 16:46 | 45.62613 | 8.71844 | 726 ft | 8 kts | 172° |
| 2026-05-05 16:46 | 45.62553 | 8.71862 | 725 ft | 9 kts | 168° |
| 2026-05-05 16:47 | 45.62484 | 8.71881 | 725 ft | 11 kts | 169° |
| 2026-05-05 16:47 | 45.62346 | 8.71918 | 726 ft | 25 kts | 169° |
| 2026-05-05 16:47 | 45.62180 | 8.71961 | 725 ft | 25 kts | 169° |
| 2026-05-05 16:47 | 45.62012 | 8.72006 | 726 ft | 25 kts | 169° |
| 2026-05-05 16:48 | 45.61843 | 8.72057 | 726 ft | 25 kts | 168° |
| 2026-05-05 16:48 | 45.61673 | 8.72103 | 723 ft | 25 kts | 169° |
| 2026-05-05 16:48 | 45.61507 | 8.72149 | 726 ft | 23 kts | 168° |
| 2026-05-05 16:48 | 45.61349 | 8.72194 | 725 ft | 23 kts | 169° |
| 2026-05-05 16:49 | 45.61190 | 8.72239 | 725 ft | 24 kts | 169° |
| 2026-05-05 16:49 | 45.61013 | 8.72285 | 718 ft | 27 kts | 170° |
| 2026-05-05 16:49 | 45.60828 | 8.72336 | 718 ft | 28 kts | 169° |
| 2026-05-05 16:49 | 45.60651 | 8.72433 | 692 ft | 30 kts | 120° |
| 2026-05-05 16:50 | 45.60624 | 8.72715 | 694 ft | 28 kts | 96° |
| 2026-05-05 16:50 | 45.60604 | 8.72997 | 696 ft | 28 kts | 95° |
| 2026-05-05 16:50 | 45.60621 | 8.73259 | 697 ft | 24 kts | 46° |
| 2026-05-05 16:50 | 45.60733 | 8.73333 | 695 ft | 13 kts | 25° |
| 2026-05-05 16:51 | 45.60823 | 8.73386 | 699 ft | 13 kts | 22° |
| 2026-05-05 16:51 | 45.60911 | 8.73405 | 716 ft | 13 kts | 354° |
| 2026-05-05 16:51 | 45.60993 | 8.73382 | 717 ft | 12 kts | 348° |
| 2026-05-05 16:51 | 45.61138 | 8.73340 | 723 ft | 30 kts | 349° |
| 2026-05-05 16:52 | 45.61343 | 8.73283 | 726 ft | 22 kts | 350° |
| 2026-05-05 16:52 | 45.61494 | 8.73244 | 726 ft | 22 kts | 349° |
| 2026-05-05 16:52 | 45.61605 | 8.73229 | 726 ft | 9 kts | 26° |
| 2026-05-05 16:52 | 45.61625 | 8.73312 | 725 ft | 9 kts | 79° |
| 2026-05-05 16:53 | 45.61634 | 8.73410 | 727 ft | 10 kts | 94° |
| 2026-05-05 16:53 | 45.61603 | 8.73505 | 728 ft | 11 kts | 120° |
| 2026-05-05 16:53 | 45.61589 | 8.73601 | 725 ft | 0 kts | 87° |
| 2026-05-05 16:54 | 45.61593 | 8.73666 | 725 ft | 9 kts | 83° |
| 2026-05-05 16:54 | 45.61633 | 8.73724 | 725 ft | 9 kts | 15° |
| 2026-05-05 16:55 | 45.61694 | 8.73717 | 726 ft | 9 kts | 347° |
| 2026-05-05 16:55 | 45.61757 | 8.73701 | 727 ft | 10 kts | 349° |
| 2026-05-05 16:55 | 45.61948 | 8.73650 | 726 ft | 56 kts | 349° |
| 2026-05-05 16:55 | 45.62514 | 8.73490 | 728 ft | 109 kts | 349° |
| 2026-05-05 16:56 | 45.63419 | 8.73240 | 727 ft | 154 kts | 349° |
| 2026-05-05 16:56 | 45.64567 | 8.72925 | 931 ft | 176 kts | 349° |
| 2026-05-05 16:56 | 45.65776 | 8.72739 | 1508 ft | 174 kts | 2° |
| 2026-05-05 16:56 | 45.66990 | 8.72741 | 2071 ft | 182 kts | 0° |
| 2026-05-05 16:57 | 45.68352 | 8.72708 | 2204 ft | 208 kts | 360° |
| 2026-05-05 16:57 | 45.69869 | 8.72725 | 2514 ft | 224 kts | 7° |
| 2026-05-05 16:57 | 45.71306 | 8.73553 | 3058 ft | 226 kts | 42° |
| 2026-05-05 16:57 | 45.72350 | 8.75225 | 3649 ft | 227 kts | 54° |
| 2026-05-05 16:58 | 45.73301 | 8.77067 | 4236 ft | 232 kts | 56° |
| 2026-05-05 16:58 | 45.74113 | 8.79073 | 4777 ft | 236 kts | 72° |
| 2026-05-05 16:58 | 45.74290 | 8.81351 | 5283 ft | 238 kts | 101° |
| 2026-05-05 16:58 | 45.73833 | 8.83682 | 5772 ft | 243 kts | 114° |
| 2026-05-05 16:59 | 45.73003 | 8.85751 | 6391 ft | 244 kts | 126° |
| 2026-05-05 16:59 | 45.71993 | 8.87729 | 6978 ft | 248 kts | 128° |
| 2026-05-05 16:59 | 45.70958 | 8.89713 | 7534 ft | 253 kts | 128° |
| 2026-05-05 16:59 | 45.69905 | 8.91750 | 8102 ft | 257 kts | 128° |
| 2026-05-05 17:00 | 45.68837 | 8.93833 | 8711 ft | 261 kts | 128° |
| 2026-05-05 17:00 | 45.67757 | 8.95947 | 9321 ft | 265 kts | 129° |
| 2026-05-05 17:00 | 45.66659 | 8.98100 | 9922 ft | 270 kts | 129° |
| 2026-05-05 17:00 | 45.65554 | 9.00289 | 10502 ft | 274 kts | 128° |
| 2026-05-05 17:01 | 45.64736 | 9.02728 | 11062 ft | 282 kts | 106° |
| 2026-05-05 17:01 | 45.64533 | 9.05595 | 11418 ft | 300 kts | 93° |
| 2026-05-05 17:01 | 45.64559 | 9.08670 | 11679 ft | 318 kts | 91° |
| 2026-05-05 17:01 | 45.64607 | 9.11919 | 11950 ft | 336 kts | 91° |
| 2026-05-05 17:02 | 45.64646 | 9.15339 | 12190 ft | 353 kts | 91° |
| 2026-05-05 17:02 | 45.64676 | 9.18927 | 12433 ft | 369 kts | 92° |
| 2026-05-05 17:02 | 45.64701 | 9.22671 | 12681 ft | 384 kts | 92° |
| 2026-05-05 17:02 | 45.64722 | 9.26560 | 12936 ft | 398 kts | 92° |
| 2026-05-05 17:03 | 45.64742 | 9.30563 | 13381 ft | 406 kts | 92° |
| 2026-05-05 17:03 | 45.64760 | 9.34564 | 13881 ft | 411 kts | 92° |
| 2026-05-05 17:03 | 45.64776 | 9.38650 | 14518 ft | 415 kts | 92° |
| 2026-05-05 17:03 | 45.64790 | 9.42792 | 15027 ft | 420 kts | 92° |
| 2026-05-05 17:04 | 45.64802 | 9.46993 | 15481 ft | 425 kts | 92° |
| 2026-05-05 17:04 | 45.64813 | 9.51238 | 16024 ft | 428 kts | 93° |
| 2026-05-05 17:04 | 45.64823 | 9.55515 | 16543 ft | 432 kts | 93° |
| 2026-05-05 17:04 | 45.64830 | 9.59823 | 16923 ft | 435 kts | 93° |
| 2026-05-05 17:05 | 45.64840 | 9.64170 | 17429 ft | 439 kts | 93° |
| 2026-05-05 17:05 | 45.64856 | 9.68470 | 17929 ft | 443 kts | 93° |
| 2026-05-05 17:05 | 45.64869 | 9.72891 | 18426 ft | 447 kts | 94° |
| 2026-05-05 17:05 | 45.64882 | 9.77353 | 18868 ft | 450 kts | 93° |
| 2026-05-05 17:06 | 45.64893 | 9.81845 | 19309 ft | 454 kts | 93° |
| 2026-05-05 17:06 | 45.64901 | 9.86374 | 19712 ft | 459 kts | 93° |
| 2026-05-05 17:06 | 45.64908 | 9.90951 | 20196 ft | 462 kts | 93° |
| 2026-05-05 17:06 | 45.64913 | 9.95555 | 20702 ft | 465 kts | 93° |
| 2026-05-05 17:07 | 45.64917 | 10.00185 | 21214 ft | 468 kts | 93° |
| 2026-05-05 17:07 | 45.64918 | 10.04854 | 21676 ft | 471 kts | 93° |
| 2026-05-05 17:07 | 45.64918 | 10.09491 | 22131 ft | 475 kts | 93° |
| 2026-05-05 17:07 | 45.64918 | 10.14215 | 22621 ft | 478 kts | 93° |
| 2026-05-05 17:08 | 45.64916 | 10.18991 | 23130 ft | 481 kts | 93° |
| 2026-05-05 17:08 | 45.64904 | 10.23791 | 23548 ft | 485 kts | 93° |
| 2026-05-05 17:08 | 45.64888 | 10.28633 | 23940 ft | 489 kts | 93° |
| 2026-05-05 17:08 | 45.64870 | 10.33498 | 24358 ft | 491 kts | 93° |
| 2026-05-05 17:09 | 45.64850 | 10.38394 | 24807 ft | 493 kts | 93° |
| 2026-05-05 17:09 | 45.64830 | 10.43315 | 25156 ft | 497 kts | 93° |
| 2026-05-05 17:09 | 45.64815 | 10.48202 | 25529 ft | 500 kts | 93° |
| 2026-05-05 17:09 | 45.64800 | 10.53180 | 25925 ft | 503 kts | 93° |
| 2026-05-05 17:10 | 45.64783 | 10.58204 | 26305 ft | 506 kts | 93° |
| 2026-05-05 17:10 | 45.64758 | 10.63243 | 26688 ft | 508 kts | 93° |
| 2026-05-05 17:10 | 45.64724 | 10.68299 | 27106 ft | 510 kts | 93° |
| 2026-05-05 17:10 | 45.64686 | 10.73372 | 27484 ft | 512 kts | 94° |
| 2026-05-05 17:11 | 45.64643 | 10.78480 | 27863 ft | 515 kts | 94° |
| 2026-05-05 17:11 | 45.64397 | 10.83516 | 28210 ft | 515 kts | 99° |
| 2026-05-05 17:11 | 45.63978 | 10.88604 | 28557 ft | 517 kts | 101° |
| 2026-05-05 17:11 | 45.63509 | 10.93708 | 28917 ft | 519 kts | 101° |
| 2026-05-05 17:12 | 45.63012 | 10.98825 | 29241 ft | 522 kts | 101° |
| 2026-05-05 17:12 | 45.62501 | 11.03956 | 29582 ft | 523 kts | 101° |
| 2026-05-05 17:12 | 45.61985 | 11.09112 | 29933 ft | 525 kts | 101° |
| 2026-05-05 17:12 | 45.61468 | 11.14276 | 30279 ft | 525 kts | 101° |
| 2026-05-05 17:13 | 45.60954 | 11.19433 | 30670 ft | 524 kts | 101° |
| 2026-05-05 17:13 | 45.60439 | 11.24589 | 30925 ft | 525 kts | 101° |
| 2026-05-05 17:13 | 45.59929 | 11.29673 | 31267 ft | 524 kts | 101° |
| 2026-05-05 17:13 | 45.59411 | 11.34821 | 31609 ft | 523 kts | 101° |
| 2026-05-05 17:14 | 45.58893 | 11.39958 | 31935 ft | 523 kts | 101° |
| 2026-05-05 17:14 | 45.58371 | 11.45093 | 32225 ft | 523 kts | 101° |
| 2026-05-05 17:14 | 45.57847 | 11.50224 | 32541 ft | 523 kts | 101° |
| 2026-05-05 17:14 | 45.57321 | 11.55358 | 32848 ft | 522 kts | 101° |
| 2026-05-05 17:15 | 45.56795 | 11.60474 | 33145 ft | 522 kts | 101° |
| 2026-05-05 17:15 | 45.56265 | 11.65599 | 33421 ft | 521 kts | 102° |
| 2026-05-05 17:15 | 45.55734 | 11.70718 | 33705 ft | 521 kts | 102° |
| 2026-05-05 17:15 | 45.55208 | 11.75758 | 33973 ft | 521 kts | 102° |
| 2026-05-05 17:16 | 45.54671 | 11.80876 | 34149 ft | 522 kts | 101° |
| 2026-05-05 17:16 | 45.54132 | 11.85992 | 34348 ft | 522 kts | 101° |
| 2026-05-05 17:16 | 45.53592 | 11.91113 | 34613 ft | 521 kts | 101° |
| 2026-05-05 17:16 | 45.53050 | 11.96216 | 34862 ft | 519 kts | 101° |
| 2026-05-05 17:17 | 45.52469 | 12.01280 | 35071 ft | 517 kts | 104° |
| 2026-05-05 17:17 | 45.51703 | 12.06283 | 35288 ft | 516 kts | 107° |
| 2026-05-05 17:17 | 45.50847 | 12.11168 | 35491 ft | 514 kts | 107° |
| 2026-05-05 17:17 | 45.49951 | 12.16098 | 35693 ft | 513 kts | 107° |
| 2026-05-05 17:18 | 45.49062 | 12.21023 | 35924 ft | 512 kts | 107° |
| 2026-05-05 17:18 | 45.48194 | 12.25946 | 36102 ft | 512 kts | 107° |
| 2026-05-05 17:18 | 45.47344 | 12.30863 | 36281 ft | 512 kts | 106° |
| 2026-05-05 17:18 | 45.46506 | 12.35788 | 36454 ft | 511 kts | 106° |
| 2026-05-05 17:19 | 45.45675 | 12.40705 | 36637 ft | 510 kts | 106° |
| 2026-05-05 17:19 | 45.44846 | 12.45620 | 36821 ft | 510 kts | 106° |
| 2026-05-05 17:19 | 45.44016 | 12.50529 | 36968 ft | 510 kts | 106° |
| 2026-05-05 17:19 | 45.43193 | 12.55375 | 36988 ft | 512 kts | 105° |
| 2026-05-05 17:20 | 45.41505 | 12.65267 | 36988 ft | 515 kts | 106° |
| 2026-05-05 17:20 | 45.39805 | 12.75166 | 36985 ft | 515 kts | 106° |
| 2026-05-05 17:21 | 45.38097 | 12.85055 | 36979 ft | 515 kts | 106° |
| 2026-05-05 17:22 | 45.35532 | 12.99795 | 36981 ft | 514 kts | 106° |
| 2026-05-05 17:22 | 45.33807 | 13.09644 | 36980 ft | 514 kts | 106° |
| 2026-05-05 17:23 | 45.32073 | 13.19487 | 36983 ft | 514 kts | 106° |
| 2026-05-05 17:23 | 45.30638 | 13.29444 | 36987 ft | 514 kts | 101° |
| 2026-05-05 17:24 | 45.29512 | 13.39384 | 36990 ft | 513 kts | 101° |
| 2026-05-05 17:24 | 45.28416 | 13.49390 | 36993 ft | 513 kts | 101° |
| 2026-05-05 17:25 | 45.27311 | 13.59385 | 36999 ft | 513 kts | 101° |
| 2026-05-05 17:25 | 45.26189 | 13.69379 | 37003 ft | 512 kts | 101° |
| 2026-05-05 17:26 | 45.25064 | 13.79290 | 36997 ft | 512 kts | 101° |
| 2026-05-05 17:26 | 45.23920 | 13.89273 | 37017 ft | 512 kts | 101° |
| 2026-05-05 17:27 | 45.22770 | 13.99247 | 37017 ft | 512 kts | 101° |
| 2026-05-05 17:27 | 45.21609 | 14.09226 | 37025 ft | 513 kts | 101° |
| 2026-05-05 17:28 | 45.20441 | 14.19198 | 37028 ft | 513 kts | 101° |
| 2026-05-05 17:28 | 45.19270 | 14.29108 | 37023 ft | 513 kts | 101° |
| 2026-05-05 17:29 | 45.18084 | 14.39069 | 37014 ft | 513 kts | 101° |
| 2026-05-05 17:29 | 45.16887 | 14.49048 | 37021 ft | 514 kts | 101° |
| 2026-05-05 17:30 | 45.15678 | 14.59048 | 37022 ft | 515 kts | 101° |
| 2026-05-05 17:30 | 45.14470 | 14.68970 | 37012 ft | 515 kts | 102° |
| 2026-05-05 17:31 | 45.13244 | 14.78958 | 37015 ft | 514 kts | 101° |
| 2026-05-05 17:31 | 45.12012 | 14.88925 | 37016 ft | 513 kts | 101° |
| 2026-05-05 17:32 | 45.10773 | 14.98878 | 37008 ft | 513 kts | 101° |
| 2026-05-05 17:32 | 45.09534 | 15.08754 | 36997 ft | 513 kts | 101° |
| 2026-05-05 17:33 | 45.08278 | 15.18693 | 36991 ft | 513 kts | 102° |
| 2026-05-05 17:33 | 45.07012 | 15.28627 | 36994 ft | 513 kts | 102° |
| 2026-05-05 17:34 | 45.05739 | 15.38556 | 36994 ft | 513 kts | 102° |
| 2026-05-05 17:34 | 45.04458 | 15.48479 | 36992 ft | 513 kts | 102° |
| 2026-05-05 17:35 | 45.03177 | 15.58321 | 36992 ft | 512 kts | 101° |
| 2026-05-05 17:35 | 45.01881 | 15.68210 | 36995 ft | 511 kts | 101° |
| 2026-05-05 17:36 | 45.00579 | 15.78085 | 36994 ft | 511 kts | 102° |
| 2026-05-05 17:36 | 44.99267 | 15.87959 | 36995 ft | 511 kts | 102° |
| 2026-05-05 17:37 | 44.97950 | 15.97801 | 36998 ft | 515 kts | 102° |
| 2026-05-05 17:37 | 44.96610 | 16.07743 | 36992 ft | 515 kts | 102° |
| 2026-05-05 17:38 | 44.95263 | 16.17678 | 36996 ft | 515 kts | 102° |
| 2026-05-05 17:38 | 44.93907 | 16.27609 | 36990 ft | 516 kts | 102° |
| 2026-05-05 17:39 | 44.92550 | 16.37479 | 36990 ft | 516 kts | 102° |
| 2026-05-05 17:39 | 44.91173 | 16.47426 | 36989 ft | 516 kts | 102° |
| 2026-05-05 17:40 | 44.89788 | 16.57362 | 36987 ft | 516 kts | 102° |
| 2026-05-05 17:40 | 44.88395 | 16.67291 | 36982 ft | 517 kts | 102° |
| 2026-05-05 17:41 | 44.86999 | 16.77179 | 36982 ft | 518 kts | 102° |
| 2026-05-05 17:41 | 44.85585 | 16.87132 | 36981 ft | 518 kts | 102° |
| 2026-05-05 17:42 | 44.84179 | 16.97078 | 36978 ft | 518 kts | 99° |
| 2026-05-05 17:42 | 44.83724 | 17.07201 | 36988 ft | 519 kts | 90° |
| 2026-05-05 17:43 | 44.83724 | 17.17304 | 36989 ft | 519 kts | 89° |
| 2026-05-05 17:43 | 44.83790 | 17.27475 | 36992 ft | 519 kts | 89° |
| 2026-05-05 17:44 | 44.83837 | 17.37647 | 36993 ft | 519 kts | 89° |
| 2026-05-05 17:44 | 44.83860 | 17.47817 | 36989 ft | 519 kts | 89° |
| 2026-05-05 17:45 | 44.83867 | 17.57913 | 36980 ft | 519 kts | 89° |
| 2026-05-05 17:45 | 44.83865 | 17.68082 | 36980 ft | 519 kts | 89° |
| 2026-05-05 17:46 | 44.83854 | 17.78244 | 36970 ft | 519 kts | 89° |
| 2026-05-05 17:46 | 44.83835 | 17.88393 | 36968 ft | 517 kts | 90° |
| 2026-05-05 17:47 | 44.83808 | 17.98454 | 36968 ft | 517 kts | 90° |
| 2026-05-05 17:47 | 44.83771 | 18.08588 | 36975 ft | 517 kts | 90° |
| 2026-05-05 17:48 | 44.83725 | 18.18719 | 36967 ft | 516 kts | 90° |
| 2026-05-05 17:48 | 44.83670 | 18.28809 | 36965 ft | 514 kts | 90° |
| 2026-05-05 17:49 | 44.83608 | 18.38873 | 36970 ft | 514 kts | 90° |
| 2026-05-05 17:49 | 44.83536 | 18.48871 | 36965 ft | 514 kts | 90° |
| 2026-05-05 17:50 | 44.83455 | 18.58936 | 36975 ft | 513 kts | 90° |
| 2026-05-05 17:50 | 44.83365 | 18.68953 | 36964 ft | 510 kts | 90° |
| 2026-05-05 17:51 | 44.83267 | 18.78940 | 36960 ft | 510 kts | 90° |
| 2026-05-05 17:51 | 44.83162 | 18.88852 | 36953 ft | 509 kts | 90° |
| 2026-05-05 17:52 | 44.83047 | 18.98829 | 36947 ft | 510 kts | 90° |
| 2026-05-05 17:52 | 44.82923 | 19.08813 | 36954 ft | 510 kts | 90° |
| 2026-05-05 17:53 | 44.82792 | 19.18728 | 36956 ft | 510 kts | 90° |
| 2026-05-05 17:53 | 44.82650 | 19.28709 | 36944 ft | 510 kts | 90° |
| 2026-05-05 17:54 | 44.82501 | 19.38688 | 36935 ft | 509 kts | 90° |
| 2026-05-05 17:54 | 44.82342 | 19.48654 | 36944 ft | 509 kts | 91° |
| 2026-05-05 17:55 | 44.82175 | 19.58631 | 36944 ft | 509 kts | 91° |
| 2026-05-05 17:55 | 44.82001 | 19.68527 | 36941 ft | 509 kts | 91° |
| 2026-05-05 17:56 | 44.81817 | 19.78490 | 36937 ft | 508 kts | 91° |
| 2026-05-05 17:56 | 44.81624 | 19.88424 | 36941 ft | 506 kts | 91° |
| 2026-05-05 17:57 | 44.81425 | 19.98298 | 36941 ft | 504 kts | 91° |
| 2026-05-05 17:57 | 44.81217 | 20.08168 | 36931 ft | 504 kts | 91° |
| 2026-05-05 17:58 | 44.81002 | 20.17962 | 36935 ft | 504 kts | 91° |
| 2026-05-05 17:58 | 44.80777 | 20.27823 | 36942 ft | 504 kts | 91° |
| 2026-05-05 17:59 | 44.80544 | 20.37686 | 36940 ft | 504 kts | 91° |
| 2026-05-05 17:59 | 44.80302 | 20.47545 | 36943 ft | 504 kts | 91° |
| 2026-05-05 18:00 | 44.80051 | 20.57406 | 36940 ft | 504 kts | 91° |
| 2026-05-05 18:00 | 44.79795 | 20.67187 | 36943 ft | 503 kts | 91° |
| 2026-05-05 18:01 | 44.79528 | 20.77031 | 36939 ft | 503 kts | 91° |
| 2026-05-05 18:01 | 44.79252 | 20.86878 | 36941 ft | 503 kts | 91° |
| 2026-05-05 18:02 | 44.78969 | 20.96715 | 36936 ft | 503 kts | 91° |
| 2026-05-05 18:02 | 44.78678 | 21.06492 | 36942 ft | 503 kts | 91° |
| 2026-05-05 18:03 | 44.78378 | 21.16336 | 36937 ft | 503 kts | 91° |
| 2026-05-05 18:03 | 44.78069 | 21.26169 | 36954 ft | 503 kts | 91° |
| 2026-05-05 18:04 | 44.77752 | 21.36009 | 36958 ft | 503 kts | 91° |
| 2026-05-05 18:04 | 44.77427 | 21.45822 | 36958 ft | 501 kts | 91° |
| 2026-05-05 18:05 | 44.77094 | 21.55554 | 36959 ft | 501 kts | 91° |
| 2026-05-05 18:05 | 44.76655 | 21.65351 | 36970 ft | 502 kts | 92° |
| 2026-05-05 18:06 | 44.76157 | 21.75135 | 36983 ft | 502 kts | 92° |
| 2026-05-05 18:06 | 44.75663 | 21.84921 | 36970 ft | 501 kts | 92° |
| 2026-05-05 18:07 | 44.75178 | 21.94634 | 36992 ft | 501 kts | 92° |
| 2026-05-05 18:07 | 44.74686 | 22.04409 | 36996 ft | 501 kts | 92° |
| 2026-05-05 18:08 | 44.74185 | 22.14186 | 36989 ft | 501 kts | 92° |
| 2026-05-05 18:08 | 44.73675 | 22.23947 | 36990 ft | 500 kts | 92° |
| 2026-05-05 18:09 | 44.73162 | 22.33628 | 36988 ft | 500 kts | 92° |
| 2026-05-05 18:09 | 44.72637 | 22.43359 | 36985 ft | 499 kts | 92° |
| 2026-05-05 18:10 | 44.72105 | 22.53064 | 36989 ft | 498 kts | 92° |
| 2026-05-05 18:10 | 44.71566 | 22.62769 | 36983 ft | 497 kts | 92° |
| 2026-05-05 18:11 | 44.71023 | 22.72392 | 36980 ft | 497 kts | 92° |
| 2026-05-05 18:11 | 44.70468 | 22.82077 | 36978 ft | 497 kts | 92° |
| 2026-05-05 18:12 | 44.69904 | 22.91766 | 36976 ft | 497 kts | 92° |
| 2026-05-05 18:12 | 44.69429 | 22.99812 | 36979 ft | 497 kts | 93° |
| 2026-05-05 18:13 | 44.68756 | 23.11061 | 36980 ft | 497 kts | 93° |
| 2026-05-05 18:13 | 44.68168 | 23.20744 | 36980 ft | 497 kts | 93° |
| 2026-05-05 18:14 | 44.67673 | 23.28796 | 36989 ft | 497 kts | 93° |
| 2026-05-05 18:14 | 44.67069 | 23.38473 | 36976 ft | 497 kts | 92° |
| 2026-05-05 18:15 | 44.66358 | 23.49714 | 36980 ft | 497 kts | 93° |
| 2026-05-05 18:15 | 44.65839 | 23.57817 | 36982 ft | 497 kts | 93° |
| 2026-05-05 18:16 | 44.65216 | 23.67421 | 36979 ft | 497 kts | 93° |
| 2026-05-05 18:16 | 44.64580 | 23.77091 | 36987 ft | 497 kts | 93° |
| 2026-05-05 18:17 | 44.63937 | 23.86737 | 36986 ft | 496 kts | 93° |
| 2026-05-05 18:17 | 44.63287 | 23.96371 | 36983 ft | 496 kts | 93° |
| 2026-05-05 18:18 | 44.62633 | 24.05935 | 36985 ft | 496 kts | 93° |
| 2026-05-05 18:18 | 44.61967 | 24.15557 | 36985 ft | 495 kts | 93° |
| 2026-05-05 18:19 | 44.61294 | 24.25176 | 36985 ft | 495 kts | 93° |
| 2026-05-05 18:19 | 44.60614 | 24.34784 | 36985 ft | 495 kts | 93° |
| 2026-05-05 18:20 | 44.59929 | 24.44331 | 36988 ft | 495 kts | 93° |
| 2026-05-05 18:20 | 44.59232 | 24.53934 | 36988 ft | 495 kts | 93° |
| 2026-05-05 18:21 | 44.58528 | 24.63536 | 36988 ft | 495 kts | 93° |
| 2026-05-05 18:21 | 44.57815 | 24.73126 | 36987 ft | 494 kts | 93° |
| 2026-05-05 18:22 | 44.57099 | 24.82657 | 36987 ft | 495 kts | 94° |
| 2026-05-05 18:22 | 44.56371 | 24.92241 | 36988 ft | 494 kts | 94° |
| 2026-05-05 18:23 | 44.55635 | 25.01812 | 36988 ft | 494 kts | 94° |
| 2026-05-05 18:23 | 44.54892 | 25.11374 | 36989 ft | 493 kts | 94° |
| 2026-05-05 18:24 | 44.54142 | 25.20928 | 36991 ft | 493 kts | 94° |
| 2026-05-05 18:24 | 44.53388 | 25.30410 | 36993 ft | 492 kts | 94° |
| 2026-05-05 18:25 | 44.52623 | 25.39951 | 36988 ft | 492 kts | 94° |
| 2026-05-05 18:25 | 44.51850 | 25.49480 | 36993 ft | 492 kts | 94° |
| 2026-05-05 18:26 | 44.51069 | 25.59009 | 36992 ft | 492 kts | 94° |
| 2026-05-05 18:26 | 44.50228 | 25.68460 | 36996 ft | 493 kts | 98° |
| 2026-05-05 18:27 | 44.48321 | 25.77720 | 36999 ft | 496 kts | 107° |
| 2026-05-05 18:27 | 44.45994 | 25.86830 | 36986 ft | 497 kts | 108° |
| 2026-05-05 18:28 | 44.42396 | 26.00432 | 36986 ft | 497 kts | 108° |
| 2026-05-05 18:28 | 44.40025 | 26.09430 | 36992 ft | 497 kts | 108° |
| 2026-05-05 18:29 | 44.37639 | 26.18491 | 36993 ft | 496 kts | 108° |
| 2026-05-05 18:29 | 44.35249 | 26.27541 | 36999 ft | 496 kts | 108° |
| 2026-05-05 18:30 | 44.32874 | 26.36503 | 36999 ft | 497 kts | 108° |
| 2026-05-05 18:30 | 44.30465 | 26.45557 | 37008 ft | 497 kts | 108° |
| 2026-05-05 18:31 | 44.28049 | 26.54596 | 37001 ft | 497 kts | 108° |
| 2026-05-05 18:31 | 44.25625 | 26.63637 | 37007 ft | 497 kts | 108° |
| 2026-05-05 18:32 | 44.23195 | 26.72662 | 37007 ft | 497 kts | 109° |
| 2026-05-05 18:32 | 44.20772 | 26.81628 | 37005 ft | 497 kts | 109° |
| 2026-05-05 18:33 | 44.18327 | 26.90643 | 37004 ft | 497 kts | 109° |
| 2026-05-05 18:33 | 44.15876 | 26.99648 | 37009 ft | 497 kts | 109° |
| 2026-05-05 18:34 | 44.13419 | 27.08639 | 37005 ft | 497 kts | 109° |
| 2026-05-05 18:34 | 44.10973 | 27.17558 | 37012 ft | 496 kts | 109° |
| 2026-05-05 18:35 | 44.08503 | 27.26531 | 37019 ft | 496 kts | 109° |
| 2026-05-05 18:35 | 44.06029 | 27.35490 | 37023 ft | 496 kts | 109° |
| 2026-05-05 18:36 | 44.03550 | 27.44430 | 37025 ft | 496 kts | 109° |
| 2026-05-05 18:36 | 44.01080 | 27.53304 | 37029 ft | 496 kts | 109° |
| 2026-05-05 18:37 | 43.98588 | 27.62227 | 37039 ft | 496 kts | 109° |
| 2026-05-05 18:37 | 43.96088 | 27.71145 | 37033 ft | 495 kts | 109° |
| 2026-05-05 18:38 | 43.93585 | 27.80044 | 37036 ft | 495 kts | 110° |
| 2026-05-05 18:38 | 43.91090 | 27.88878 | 37042 ft | 495 kts | 110° |
| 2026-05-05 18:39 | 43.88571 | 27.97768 | 37043 ft | 495 kts | 110° |
| 2026-05-05 18:39 | 43.86044 | 28.06655 | 37044 ft | 495 kts | 110° |
| 2026-05-05 18:40 | 43.83512 | 28.15528 | 37048 ft | 495 kts | 110° |
| 2026-05-05 18:40 | 43.80990 | 28.24334 | 37048 ft | 495 kts | 110° |
| 2026-05-05 18:41 | 43.78444 | 28.33191 | 37053 ft | 495 kts | 110° |
| 2026-05-05 18:41 | 43.75894 | 28.42032 | 37059 ft | 495 kts | 110° |
| 2026-05-05 18:42 | 43.73123 | 28.50742 | 37071 ft | 497 kts | 118° |
| 2026-05-05 18:42 | 43.69580 | 28.58866 | 37070 ft | 497 kts | 120° |
| 2026-05-05 18:43 | 43.65862 | 28.66920 | 37075 ft | 497 kts | 121° |
| 2026-05-05 18:43 | 43.62121 | 28.74944 | 37079 ft | 497 kts | 121° |
| 2026-05-05 18:44 | 43.58384 | 28.82976 | 37078 ft | 498 kts | 121° |
| 2026-05-05 18:44 | 43.54643 | 28.91021 | 37078 ft | 498 kts | 121° |
| 2026-05-05 18:45 | 43.50928 | 28.98992 | 37081 ft | 498 kts | 121° |
| 2026-05-05 18:45 | 43.47183 | 29.07009 | 37080 ft | 498 kts | 121° |
| 2026-05-05 18:46 | 43.43428 | 29.15021 | 37078 ft | 498 kts | 121° |
| 2026-05-05 18:46 | 43.39671 | 29.23016 | 37078 ft | 498 kts | 121° |
| 2026-05-05 18:47 | 43.35929 | 29.30959 | 37075 ft | 498 kts | 121° |
| 2026-05-05 18:47 | 43.32159 | 29.38938 | 37081 ft | 498 kts | 121° |
| 2026-05-05 18:48 | 43.28381 | 29.46912 | 37072 ft | 498 kts | 121° |
| 2026-05-05 18:48 | 43.24599 | 29.54872 | 37073 ft | 498 kts | 121° |
| 2026-05-05 18:49 | 43.20839 | 29.62768 | 37075 ft | 498 kts | 121° |
| 2026-05-05 18:49 | 43.17047 | 29.70707 | 37073 ft | 498 kts | 121° |
| 2026-05-05 18:50 | 43.13253 | 29.78631 | 37072 ft | 498 kts | 121° |
| 2026-05-05 18:50 | 43.09471 | 29.86507 | 37072 ft | 499 kts | 121° |
| 2026-05-05 18:51 | 43.05654 | 29.94435 | 37074 ft | 499 kts | 121° |
| 2026-05-05 18:51 | 43.01829 | 30.02358 | 37070 ft | 499 kts | 121° |
| 2026-05-05 18:52 | 42.98003 | 30.10263 | 37072 ft | 499 kts | 121° |
| 2026-05-05 18:52 | 42.94168 | 30.18166 | 37084 ft | 499 kts | 121° |
| 2026-05-05 18:53 | 42.90356 | 30.25999 | 37068 ft | 499 kts | 121° |
| 2026-05-05 18:53 | 42.86511 | 30.33879 | 37066 ft | 499 kts | 121° |
| 2026-05-05 18:54 | 42.82660 | 30.41751 | 37068 ft | 499 kts | 121° |
| 2026-05-05 18:54 | 42.78807 | 30.49607 | 37068 ft | 499 kts | 121° |
| 2026-05-05 18:55 | 42.75193 | 30.57635 | 37064 ft | 495 kts | 112° |
| 2026-05-05 18:55 | 42.73217 | 30.66437 | 37062 ft | 489 kts | 97° |
| 2026-05-05 18:56 | 42.72186 | 30.75564 | 37056 ft | 488 kts | 95° |
| 2026-05-05 18:56 | 42.71303 | 30.84709 | 37063 ft | 487 kts | 95° |
| 2026-05-05 18:57 | 42.70405 | 30.93843 | 37062 ft | 487 kts | 95° |
| 2026-05-05 18:57 | 42.69471 | 31.02971 | 37060 ft | 488 kts | 95° |
| 2026-05-05 18:58 | 42.68524 | 31.12036 | 37071 ft | 488 kts | 95° |
| 2026-05-05 18:58 | 42.67562 | 31.21157 | 37058 ft | 488 kts | 95° |
| 2026-05-05 18:59 | 42.66592 | 31.30291 | 37059 ft | 488 kts | 96° |
| 2026-05-05 18:59 | 42.65616 | 31.39420 | 37064 ft | 488 kts | 96° |
| 2026-05-05 19:00 | 42.64642 | 31.48462 | 37073 ft | 487 kts | 96° |
| 2026-05-05 19:00 | 42.63656 | 31.57547 | 37058 ft | 486 kts | 96° |
| 2026-05-05 19:01 | 42.62663 | 31.66631 | 37055 ft | 486 kts | 96° |
| 2026-05-05 19:01 | 42.61662 | 31.75715 | 37055 ft | 486 kts | 96° |
| 2026-05-05 19:02 | 42.60661 | 31.84736 | 37063 ft | 487 kts | 96° |
| 2026-05-05 19:02 | 42.59645 | 31.93828 | 37059 ft | 488 kts | 96° |
| 2026-05-05 19:03 | 42.58621 | 32.02918 | 37059 ft | 488 kts | 96° |
| 2026-05-05 19:03 | 42.57610 | 32.12020 | 37056 ft | 488 kts | 96° |
| 2026-05-05 19:04 | 42.56571 | 32.21116 | 37061 ft | 488 kts | 96° |
| 2026-05-05 19:04 | 42.55525 | 32.30158 | 37056 ft | 489 kts | 96° |
| 2026-05-05 19:05 | 42.54465 | 32.39278 | 37052 ft | 489 kts | 96° |
| 2026-05-05 19:05 | 42.53401 | 32.48383 | 37045 ft | 489 kts | 96° |
| 2026-05-05 19:06 | 42.52330 | 32.57484 | 37069 ft | 489 kts | 96° |
| 2026-05-05 19:06 | 42.51257 | 32.66548 | 37050 ft | 491 kts | 96° |
| 2026-05-05 19:07 | 42.50168 | 32.75676 | 37054 ft | 491 kts | 96° |
| 2026-05-05 19:07 | 42.49071 | 32.84809 | 37054 ft | 491 kts | 96° |
| 2026-05-05 19:08 | 42.47967 | 32.93937 | 37056 ft | 491 kts | 96° |
| 2026-05-05 19:08 | 42.46855 | 33.03065 | 37055 ft | 491 kts | 97° |
| 2026-05-05 19:09 | 42.45744 | 33.12126 | 37043 ft | 491 kts | 97° |
| 2026-05-05 19:09 | 42.44623 | 33.21244 | 37054 ft | 491 kts | 97° |
| 2026-05-05 19:10 | 42.43486 | 33.30360 | 37053 ft | 492 kts | 97° |
| 2026-05-05 19:10 | 42.42338 | 33.39498 | 37054 ft | 493 kts | 97° |
| 2026-05-05 19:11 | 42.41188 | 33.48643 | 37055 ft | 492 kts | 97° |
| 2026-05-05 19:11 | 42.40036 | 33.57710 | 37060 ft | 492 kts | 97° |
| 2026-05-05 19:12 | 42.38871 | 33.66825 | 37057 ft | 492 kts | 98° |
| 2026-05-05 19:12 | 42.37697 | 33.75953 | 37056 ft | 493 kts | 98° |
| 2026-05-05 19:13 | 42.36516 | 33.85084 | 37056 ft | 493 kts | 98° |
| 2026-05-05 19:13 | 42.35340 | 33.94155 | 37056 ft | 493 kts | 98° |
| 2026-05-05 19:14 | 42.34149 | 34.03279 | 37060 ft | 493 kts | 98° |
| 2026-05-05 19:14 | 42.32947 | 34.12415 | 37058 ft | 494 kts | 98° |
| 2026-05-05 19:15 | 42.31737 | 34.21553 | 37058 ft | 494 kts | 98° |
| 2026-05-05 19:15 | 42.30530 | 34.30626 | 37059 ft | 494 kts | 98° |
| 2026-05-05 19:16 | 42.29308 | 34.39753 | 37059 ft | 494 kts | 98° |
| 2026-05-05 19:16 | 42.28081 | 34.48880 | 37059 ft | 493 kts | 99° |
| 2026-05-05 19:17 | 42.26842 | 34.57977 | 37057 ft | 492 kts | 99° |
| 2026-05-05 19:17 | 42.25598 | 34.67060 | 37057 ft | 492 kts | 99° |
| 2026-05-05 19:18 | 42.24358 | 34.76081 | 37059 ft | 492 kts | 99° |
| 2026-05-05 19:18 | 42.23104 | 34.85165 | 37054 ft | 493 kts | 99° |
| 2026-05-05 19:19 | 42.21835 | 34.94252 | 37060 ft | 493 kts | 99° |
| 2026-05-05 19:19 | 42.20558 | 35.03326 | 37055 ft | 493 kts | 99° |
| 2026-05-05 19:20 | 42.19283 | 35.12346 | 37057 ft | 493 kts | 100° |
| 2026-05-05 19:20 | 42.17992 | 35.21427 | 37055 ft | 493 kts | 100° |
| 2026-05-05 19:21 | 42.16693 | 35.30513 | 37056 ft | 493 kts | 100° |
| 2026-05-05 19:21 | 42.15397 | 35.39527 | 37056 ft | 493 kts | 100° |
| 2026-05-05 19:22 | 42.14085 | 35.48604 | 37052 ft | 494 kts | 101° |
| 2026-05-05 19:22 | 42.12771 | 35.57671 | 37054 ft | 493 kts | 101° |
| 2026-05-05 19:23 | 42.11450 | 35.66730 | 37054 ft | 492 kts | 100° |
| 2026-05-05 19:23 | 42.10131 | 35.75720 | 37055 ft | 493 kts | 100° |
| 2026-05-05 19:24 | 42.08795 | 35.84771 | 37055 ft | 494 kts | 101° |
| 2026-05-05 19:24 | 42.07450 | 35.93829 | 37056 ft | 494 kts | 101° |
| 2026-05-05 19:25 | 42.06097 | 36.02889 | 37055 ft | 494 kts | 101° |
| 2026-05-05 19:25 | 42.04737 | 36.11944 | 37057 ft | 494 kts | 101° |
| 2026-05-05 19:26 | 42.03378 | 36.20940 | 37053 ft | 494 kts | 102° |
| 2026-05-05 19:26 | 42.02003 | 36.29998 | 37053 ft | 494 kts | 102° |
| 2026-05-05 19:27 | 42.00621 | 36.39051 | 37056 ft | 494 kts | 102° |
| 2026-05-05 19:27 | 41.99231 | 36.48103 | 37054 ft | 494 kts | 102° |
| 2026-05-05 19:28 | 41.97846 | 36.57072 | 37056 ft | 493 kts | 102° |
| 2026-05-05 19:28 | 41.96446 | 36.66085 | 37057 ft | 493 kts | 102° |
| 2026-05-05 19:29 | 41.95041 | 36.75084 | 37055 ft | 492 kts | 102° |
| 2026-05-05 19:29 | 41.93628 | 36.84092 | 37057 ft | 493 kts | 102° |
| 2026-05-05 19:30 | 41.92215 | 36.93040 | 37055 ft | 493 kts | 102° |
| 2026-05-05 19:30 | 41.90813 | 37.02051 | 37051 ft | 493 kts | 100° |
| 2026-05-05 19:31 | 41.90293 | 37.11230 | 37052 ft | 494 kts | 92° |
| 2026-05-05 19:31 | 41.90126 | 37.20448 | 37050 ft | 494 kts | 91° |
| 2026-05-05 19:32 | 41.90012 | 37.29615 | 37044 ft | 495 kts | 92° |
| 2026-05-05 19:32 | 41.89883 | 37.38848 | 37052 ft | 494 kts | 92° |
| 2026-05-05 19:33 | 41.89734 | 37.48066 | 37052 ft | 494 kts | 92° |
| 2026-05-05 19:33 | 41.89572 | 37.57284 | 37050 ft | 494 kts | 92° |
| 2026-05-05 19:34 | 41.89403 | 37.66443 | 37047 ft | 494 kts | 92° |
| 2026-05-05 19:35 | 41.89136 | 37.80282 | 37046 ft | 495 kts | 92° |
| 2026-05-05 19:35 | 41.88949 | 37.89512 | 37039 ft | 494 kts | 93° |
| 2026-05-05 19:36 | 41.88756 | 37.98656 | 37050 ft | 493 kts | 93° |
| 2026-05-05 19:36 | 41.88555 | 38.07860 | 37048 ft | 493 kts | 93° |
| 2026-05-05 19:37 | 41.88345 | 38.17065 | 37048 ft | 494 kts | 93° |
| 2026-05-05 19:37 | 41.88129 | 38.26273 | 37048 ft | 494 kts | 93° |
| 2026-05-05 19:38 | 41.87905 | 38.35482 | 37042 ft | 494 kts | 93° |
| 2026-05-05 19:38 | 41.87676 | 38.44627 | 37037 ft | 494 kts | 93° |
| 2026-05-05 19:39 | 41.87437 | 38.53846 | 37042 ft | 495 kts | 93° |
| 2026-05-05 19:39 | 41.87190 | 38.63079 | 37042 ft | 495 kts | 93° |
| 2026-05-05 19:40 | 41.86937 | 38.72308 | 37045 ft | 495 kts | 94° |
| 2026-05-05 19:40 | 41.86677 | 38.81474 | 37045 ft | 495 kts | 94° |
| 2026-05-05 19:41 | 41.86409 | 38.90703 | 37045 ft | 495 kts | 94° |
| 2026-05-05 19:41 | 41.86133 | 38.99924 | 37045 ft | 495 kts | 94° |
| 2026-05-05 19:42 | 41.85850 | 39.09148 | 37040 ft | 495 kts | 94° |
| 2026-05-05 19:42 | 41.85560 | 39.18361 | 37043 ft | 494 kts | 94° |
| 2026-05-05 19:43 | 41.85265 | 39.27509 | 37041 ft | 494 kts | 94° |
| 2026-05-05 19:43 | 41.84959 | 39.36733 | 37042 ft | 495 kts | 94° |
| 2026-05-05 19:44 | 41.84646 | 39.45967 | 37043 ft | 496 kts | 94° |
| 2026-05-05 19:44 | 41.84327 | 39.55203 | 37039 ft | 496 kts | 94° |
| 2026-05-05 19:45 | 41.84002 | 39.64375 | 37040 ft | 496 kts | 94° |
| 2026-05-05 19:45 | 41.83668 | 39.73596 | 37043 ft | 495 kts | 95° |
| 2026-05-05 19:46 | 41.83327 | 39.82808 | 37039 ft | 495 kts | 95° |
| 2026-05-05 19:46 | 41.82979 | 39.92017 | 37041 ft | 495 kts | 95° |
| 2026-05-05 19:47 | 41.82626 | 40.01165 | 37039 ft | 495 kts | 95° |
| 2026-05-05 19:47 | 41.82263 | 40.10380 | 37041 ft | 495 kts | 95° |
| 2026-05-05 19:48 | 41.81896 | 40.19595 | 37031 ft | 495 kts | 95° |
| 2026-05-05 19:48 | 41.81516 | 40.28797 | 37031 ft | 495 kts | 95° |
| 2026-05-05 19:49 | 41.81130 | 40.37935 | 37032 ft | 494 kts | 95° |
| 2026-05-05 19:49 | 41.80735 | 40.47138 | 37029 ft | 494 kts | 95° |
| 2026-05-05 19:50 | 41.80334 | 40.56328 | 37039 ft | 494 kts | 95° |
| 2026-05-05 19:50 | 41.80127 | 40.65539 | 37048 ft | 497 kts | 88° |
| 2026-05-05 19:51 | 41.81001 | 40.74672 | 37036 ft | 498 kts | 83° |
| 2026-05-05 19:51 | 41.82120 | 40.83801 | 37241 ft | 497 kts | 82° |
| 2026-05-05 19:51 | 41.82696 | 40.88359 | 37474 ft | 496 kts | 82° |
| 2026-05-05 19:52 | 41.83269 | 40.92922 | 37632 ft | 496 kts | 82° |
| 2026-05-05 19:52 | 41.83833 | 40.97477 | 37790 ft | 496 kts | 82° |
| 2026-05-05 19:52 | 41.84393 | 41.02045 | 37909 ft | 496 kts | 83° |
| 2026-05-05 19:52 | 41.84941 | 41.06556 | 38015 ft | 497 kts | 83° |
| 2026-05-05 19:53 | 41.85493 | 41.11142 | 38075 ft | 499 kts | 83° |
| 2026-05-05 19:53 | 41.86044 | 41.15738 | 38194 ft | 499 kts | 83° |
| 2026-05-05 19:53 | 41.86594 | 41.20339 | 38328 ft | 499 kts | 83° |
| 2026-05-05 19:53 | 41.87141 | 41.24933 | 38472 ft | 499 kts | 83° |
| 2026-05-05 19:54 | 41.87687 | 41.29534 | 38587 ft | 499 kts | 83° |
| 2026-05-05 19:54 | 41.88769 | 41.38688 | 38755 ft | 500 kts | 83° |
| 2026-05-05 19:54 | 41.89310 | 41.43298 | 38859 ft | 500 kts | 83° |
| 2026-05-05 19:55 | 41.89850 | 41.47908 | 38954 ft | 500 kts | 83° |
| 2026-05-05 19:55 | 41.90926 | 41.57146 | 39037 ft | 502 kts | 83° |
| 2026-05-05 19:56 | 41.92000 | 41.66438 | 39032 ft | 504 kts | 83° |
| 2026-05-05 19:56 | 41.93062 | 41.75685 | 39030 ft | 505 kts | 83° |
| 2026-05-05 19:57 | 41.94123 | 41.84997 | 39026 ft | 504 kts | 83° |
| 2026-05-05 19:57 | 41.95177 | 41.94315 | 39026 ft | 504 kts | 83° |
| 2026-05-05 19:58 | 41.96223 | 42.03627 | 39019 ft | 504 kts | 83° |
| 2026-05-05 19:58 | 41.97261 | 42.12949 | 39020 ft | 504 kts | 84° |
| 2026-05-05 19:59 | 41.98284 | 42.22198 | 39010 ft | 504 kts | 84° |
| 2026-05-05 19:59 | 41.99308 | 42.31532 | 39020 ft | 504 kts | 84° |
| 2026-05-05 20:00 | 42.00324 | 42.40862 | 39017 ft | 505 kts | 84° |
| 2026-05-05 20:00 | 42.01335 | 42.50203 | 39020 ft | 505 kts | 84° |
| 2026-05-05 20:01 | 42.02332 | 42.59503 | 39021 ft | 506 kts | 84° |
| 2026-05-05 20:01 | 42.03326 | 42.68854 | 39020 ft | 505 kts | 84° |
| 2026-05-05 20:02 | 42.04313 | 42.78213 | 39019 ft | 505 kts | 84° |
| 2026-05-05 20:02 | 42.05292 | 42.87572 | 39019 ft | 506 kts | 85° |
| 2026-05-05 20:03 | 42.05651 | 42.96913 | 39020 ft | 501 kts | 98° |
| 2026-05-05 20:03 | 42.03970 | 43.05874 | 39018 ft | 492 kts | 117° |
| 2026-05-05 20:04 | 42.00957 | 43.14108 | 39016 ft | 491 kts | 121° |
| 2026-05-05 20:04 | 41.97723 | 43.22185 | 39011 ft | 491 kts | 122° |
| 2026-05-05 20:05 | 41.94502 | 43.30202 | 39006 ft | 491 kts | 121° |
| 2026-05-05 20:05 | 41.91283 | 43.38290 | 39010 ft | 492 kts | 121° |
| 2026-05-05 20:06 | 41.88069 | 43.46395 | 38996 ft | 492 kts | 121° |
| 2026-05-05 20:06 | 41.84847 | 43.54504 | 38997 ft | 493 kts | 121° |
| 2026-05-05 20:07 | 41.81641 | 43.62551 | 38997 ft | 493 kts | 121° |
| 2026-05-05 20:07 | 41.78405 | 43.70644 | 38996 ft | 492 kts | 121° |
| 2026-05-05 20:08 | 41.75160 | 43.78734 | 38993 ft | 494 kts | 122° |
| 2026-05-05 20:08 | 41.71904 | 43.86830 | 38992 ft | 494 kts | 122° |
| 2026-05-05 20:09 | 41.68642 | 43.94919 | 38991 ft | 494 kts | 122° |
| 2026-05-05 20:09 | 41.65396 | 44.02947 | 38993 ft | 494 kts | 122° |
| 2026-05-05 20:10 | 41.62119 | 44.11029 | 38992 ft | 495 kts | 122° |
| 2026-05-05 20:10 | 41.58867 | 44.19147 | 38989 ft | 497 kts | 119° |
| 2026-05-05 20:11 | 41.56779 | 44.27989 | 39001 ft | 505 kts | 104° |
| 2026-05-05 20:11 | 41.55725 | 44.37233 | 38995 ft | 509 kts | 101° |
| 2026-05-05 20:12 | 41.54840 | 44.46609 | 38985 ft | 509 kts | 101° |
| 2026-05-05 20:12 | 41.53951 | 44.55981 | 38990 ft | 509 kts | 101° |
| 2026-05-05 20:13 | 41.53025 | 44.65347 | 38982 ft | 509 kts | 101° |
| 2026-05-05 20:13 | 41.52078 | 44.74704 | 38982 ft | 509 kts | 101° |
| 2026-05-05 20:14 | 41.51127 | 44.83992 | 38996 ft | 509 kts | 101° |
| 2026-05-05 20:14 | 41.50164 | 44.93336 | 38998 ft | 509 kts | 101° |
| 2026-05-05 20:15 | 41.49193 | 45.02695 | 38974 ft | 510 kts | 102° |
| 2026-05-05 20:15 | 41.48211 | 45.12081 | 38979 ft | 512 kts | 102° |
| 2026-05-05 20:16 | 41.47180 | 45.21409 | 38968 ft | 510 kts | 105° |
| 2026-05-05 20:16 | 41.44846 | 45.30184 | 38973 ft | 498 kts | 123° |
| 2026-05-05 20:17 | 41.40766 | 45.37472 | 38961 ft | 489 kts | 136° |
| 2026-05-05 20:17 | 41.36163 | 45.44110 | 38973 ft | 487 kts | 138° |
| 2026-05-05 20:18 | 41.31530 | 45.50593 | 38974 ft | 487 kts | 138° |
| 2026-05-05 20:18 | 41.26879 | 45.57141 | 38956 ft | 487 kts | 138° |
| 2026-05-05 20:19 | 41.22439 | 45.63949 | 38971 ft | 492 kts | 129° |
| 2026-05-05 20:19 | 41.19326 | 45.72134 | 38966 ft | 502 kts | 116° |
| 2026-05-05 20:20 | 41.16959 | 45.80818 | 38963 ft | 505 kts | 114° |
| 2026-05-05 20:20 | 41.14690 | 45.89637 | 38958 ft | 505 kts | 114° |
| 2026-05-05 20:21 | 41.12396 | 45.98445 | 38961 ft | 505 kts | 115° |
| 2026-05-05 20:21 | 41.10068 | 46.07227 | 38958 ft | 505 kts | 115° |
| 2026-05-05 20:22 | 41.07737 | 46.15946 | 38958 ft | 505 kts | 115° |
| 2026-05-05 20:22 | 41.05382 | 46.24717 | 38971 ft | 506 kts | 115° |
| 2026-05-05 20:23 | 41.03024 | 46.33491 | 38969 ft | 506 kts | 115° |
| 2026-05-05 20:23 | 41.00679 | 46.42272 | 38958 ft | 506 kts | 115° |
| 2026-05-05 20:24 | 40.98343 | 46.51008 | 38960 ft | 507 kts | 115° |
| 2026-05-05 20:24 | 40.95983 | 46.59790 | 38968 ft | 507 kts | 116° |
| 2026-05-05 20:25 | 40.93611 | 46.68576 | 38967 ft | 507 kts | 116° |
| 2026-05-05 20:25 | 40.91441 | 46.77403 | 38954 ft | 514 kts | 108° |
| 2026-05-05 20:26 | 40.91006 | 46.86922 | 38973 ft | 529 kts | 88° |
| 2026-05-05 20:26 | 40.92451 | 46.96518 | 38967 ft | 535 kts | 81° |
| 2026-05-05 20:27 | 40.94268 | 47.06079 | 38979 ft | 537 kts | 80° |
| 2026-05-05 20:27 | 40.96102 | 47.15654 | 38988 ft | 537 kts | 80° |
| 2026-05-05 20:28 | 40.97873 | 47.25178 | 38984 ft | 536 kts | 81° |
| 2026-05-05 20:28 | 40.99624 | 47.34774 | 38985 ft | 536 kts | 81° |
| 2026-05-05 20:29 | 41.01363 | 47.44379 | 38992 ft | 537 kts | 81° |
| 2026-05-05 20:29 | 41.03095 | 47.53990 | 38994 ft | 537 kts | 81° |
| 2026-05-05 20:30 | 41.04810 | 47.63548 | 38989 ft | 537 kts | 81° |
| 2026-05-05 20:30 | 41.06529 | 47.73174 | 38986 ft | 537 kts | 82° |
| 2026-05-05 20:31 | 41.08240 | 47.82798 | 38975 ft | 537 kts | 82° |
| 2026-05-05 20:31 | 41.09942 | 47.92427 | 38970 ft | 536 kts | 82° |
| 2026-05-05 20:32 | 41.12027 | 48.01891 | 38957 ft | 540 kts | 75° |
| 2026-05-05 20:32 | 41.14576 | 48.11262 | 38967 ft | 539 kts | 73° |
| 2026-05-05 20:33 | 41.17190 | 48.20594 | 38976 ft | 540 kts | 73° |
| 2026-05-05 20:33 | 41.19793 | 48.29941 | 38984 ft | 539 kts | 74° |
| 2026-05-05 20:34 | 41.22377 | 48.39293 | 38954 ft | 539 kts | 74° |
| 2026-05-05 20:34 | 41.24934 | 48.48608 | 38980 ft | 542 kts | 74° |
| 2026-05-05 20:35 | 41.27507 | 48.58010 | 39004 ft | 541 kts | 75° |
| 2026-05-05 20:35 | 41.30073 | 48.67423 | 39000 ft | 542 kts | 75° |
| 2026-05-05 20:36 | 41.32637 | 48.76868 | 39003 ft | 543 kts | 75° |
| 2026-05-05 20:36 | 41.35177 | 48.86257 | 38999 ft | 543 kts | 75° |
| 2026-05-05 20:37 | 41.37730 | 48.95716 | 39001 ft | 544 kts | 75° |
| 2026-05-05 20:37 | 41.40277 | 49.05216 | 38999 ft | 545 kts | 75° |
| 2026-05-05 20:38 | 41.42818 | 49.14732 | 38991 ft | 545 kts | 75° |
| 2026-05-05 20:38 | 41.45335 | 49.24186 | 38994 ft | 545 kts | 75° |
| 2026-05-05 20:39 | 41.47863 | 49.33718 | 38991 ft | 545 kts | 75° |
| 2026-05-05 20:39 | 41.50380 | 49.43245 | 38990 ft | 545 kts | 75° |
| 2026-05-05 20:40 | 41.52891 | 49.52789 | 38984 ft | 545 kts | 75° |
| 2026-05-05 20:40 | 41.55380 | 49.62284 | 38988 ft | 546 kts | 75° |
| 2026-05-05 20:41 | 41.57878 | 49.71853 | 38988 ft | 546 kts | 76° |
| 2026-05-05 20:41 | 41.60371 | 49.81438 | 38988 ft | 546 kts | 76° |
| 2026-05-05 20:42 | 41.62856 | 49.91030 | 38986 ft | 547 kts | 76° |
| 2026-05-05 20:42 | 41.65336 | 50.00643 | 38982 ft | 547 kts | 76° |
| 2026-05-05 20:43 | 41.67789 | 50.10190 | 38982 ft | 547 kts | 76° |
| 2026-05-05 20:43 | 41.70255 | 50.19824 | 38982 ft | 547 kts | 76° |
| 2026-05-05 20:44 | 41.72712 | 50.29465 | 38982 ft | 547 kts | 76° |
| 2026-05-05 20:44 | 41.75162 | 50.39114 | 38982 ft | 547 kts | 76° |
| 2026-05-05 20:45 | 41.78808 | 50.53545 | 38982 ft | 548 kts | 76° |
| 2026-05-05 20:45 | 41.81244 | 50.63237 | 38977 ft | 549 kts | 76° |
| 2026-05-05 20:46 | 41.83672 | 50.72937 | 38979 ft | 549 kts | 76° |
| 2026-05-05 20:46 | 41.86078 | 50.82587 | 38979 ft | 549 kts | 77° |
| 2026-05-05 20:47 | 41.88491 | 50.92309 | 38979 ft | 550 kts | 77° |
| 2026-05-05 20:47 | 41.90898 | 51.02047 | 38977 ft | 549 kts | 77° |
| 2026-05-05 20:48 | 41.93296 | 51.11787 | 38964 ft | 550 kts | 77° |
| 2026-05-05 20:48 | 41.95696 | 51.21584 | 38967 ft | 553 kts | 77° |
| 2026-05-05 20:49 | 41.98080 | 51.31349 | 38979 ft | 554 kts | 77° |
| 2026-05-05 20:49 | 42.00476 | 51.41193 | 38969 ft | 554 kts | 77° |
| 2026-05-05 20:50 | 42.03192 | 51.49064 | 38977 ft | 564 kts | 63° |
| 2026-05-05 20:50 | 42.08072 | 51.59537 | 38972 ft | 566 kts | 60° |
| 2026-05-05 20:51 | 42.12378 | 51.68339 | 38970 ft | 567 kts | 59° |
| 2026-05-05 20:51 | 42.16707 | 51.77221 | 38973 ft | 567 kts | 60° |
| 2026-05-05 20:52 | 42.21005 | 51.86130 | 38969 ft | 567 kts | 60° |
| 2026-05-05 20:52 | 42.25258 | 51.95002 | 38963 ft | 567 kts | 60° |
| 2026-05-05 20:53 | 42.29528 | 52.03939 | 38975 ft | 567 kts | 60° |
| 2026-05-05 20:53 | 42.33795 | 52.12894 | 38965 ft | 566 kts | 60° |
| 2026-05-05 20:54 | 42.38054 | 52.21858 | 38963 ft | 567 kts | 60° |
| 2026-05-05 20:54 | 42.42278 | 52.30773 | 38968 ft | 567 kts | 60° |
| 2026-05-05 20:55 | 42.46525 | 52.39764 | 38956 ft | 567 kts | 60° |
| 2026-05-05 20:55 | 42.50764 | 52.48765 | 38966 ft | 567 kts | 60° |
| 2026-05-05 20:56 | 42.54998 | 52.57784 | 38966 ft | 567 kts | 60° |
| 2026-05-05 20:56 | 42.59195 | 52.66749 | 38946 ft | 567 kts | 60° |
| 2026-05-05 20:57 | 42.63414 | 52.75789 | 38963 ft | 567 kts | 60° |
| 2026-05-05 20:57 | 42.67626 | 52.84841 | 38963 ft | 567 kts | 60° |
| 2026-05-05 20:58 | 42.71830 | 52.93905 | 38960 ft | 566 kts | 60° |
| 2026-05-05 20:58 | 42.75994 | 53.02908 | 38960 ft | 566 kts | 60° |
| 2026-05-05 20:59 | 42.80178 | 53.11983 | 38960 ft | 566 kts | 61° |
| 2026-05-05 20:59 | 42.84355 | 53.21073 | 38955 ft | 566 kts | 61° |
| 2026-05-05 21:00 | 42.88523 | 53.30169 | 38961 ft | 566 kts | 61° |
| 2026-05-05 21:00 | 42.92655 | 53.39214 | 38958 ft | 566 kts | 61° |
| 2026-05-05 21:01 | 42.96805 | 53.48328 | 38951 ft | 566 kts | 61° |
| 2026-05-05 21:01 | 43.00519 | 53.57739 | 38951 ft | 558 kts | 74° |
| 2026-05-05 21:02 | 43.01560 | 53.62788 | 38951 ft | 549 kts | 86° |
| 2026-05-05 21:02 | 43.02126 | 53.67921 | 38949 ft | 545 kts | 89° |
| 2026-05-05 21:02 | 43.02898 | 53.78151 | 38940 ft | 544 kts | 91° |
| 2026-05-05 21:03 | 43.03534 | 53.88466 | 38944 ft | 545 kts | 91° |
| 2026-05-05 21:03 | 43.04181 | 53.98802 | 38945 ft | 546 kts | 91° |
| 2026-05-05 21:04 | 43.04847 | 54.09132 | 38930 ft | 545 kts | 91° |
| 2026-05-05 21:04 | 43.05511 | 54.19380 | 38931 ft | 544 kts | 91° |
| 2026-05-05 21:05 | 43.06169 | 54.29690 | 38938 ft | 544 kts | 91° |
| 2026-05-05 21:05 | 43.06816 | 54.40001 | 38935 ft | 544 kts | 91° |
| 2026-05-05 21:06 | 43.07346 | 54.48574 | 38935 ft | 544 kts | 91° |
| 2026-05-05 21:06 | 43.07976 | 54.58890 | 38923 ft | 544 kts | 91° |
| 2026-05-05 21:07 | 43.08696 | 54.70895 | 38935 ft | 545 kts | 91° |
| 2026-05-05 21:07 | 43.09307 | 54.81238 | 38919 ft | 545 kts | 91° |
| 2026-05-05 21:08 | 43.09808 | 54.89833 | 38930 ft | 546 kts | 91° |
| 2026-05-05 21:08 | 43.10402 | 55.00190 | 38918 ft | 546 kts | 90° |
| 2026-05-05 21:09 | 43.11082 | 55.12248 | 38918 ft | 547 kts | 90° |
| 2026-05-05 21:09 | 43.11562 | 55.20881 | 38923 ft | 547 kts | 91° |
| 2026-05-05 21:10 | 43.12130 | 55.31270 | 38915 ft | 547 kts | 91° |
| 2026-05-05 21:10 | 43.12778 | 55.43344 | 38920 ft | 547 kts | 91° |
| 2026-05-05 21:11 | 43.13238 | 55.52050 | 38917 ft | 547 kts | 91° |
| 2026-05-05 21:11 | 43.13772 | 55.62376 | 38913 ft | 548 kts | 90° |
| 2026-05-05 21:12 | 43.14304 | 55.72801 | 38916 ft | 549 kts | 91° |
| 2026-05-05 21:12 | 43.14826 | 55.83225 | 38911 ft | 550 kts | 90° |
| 2026-05-05 21:13 | 43.15340 | 55.93681 | 38911 ft | 551 kts | 90° |
| 2026-05-05 21:13 | 43.15111 | 56.03980 | 38912 ft | 541 kts | 103° |
| 2026-05-05 21:14 | 43.14014 | 56.14148 | 38904 ft | 539 kts | 105° |
| 2026-05-05 21:14 | 43.12767 | 56.24273 | 38896 ft | 540 kts | 105° |
| 2026-05-05 21:15 | 43.11501 | 56.34416 | 38899 ft | 541 kts | 105° |
| 2026-05-05 21:15 | 43.10254 | 56.44498 | 38898 ft | 541 kts | 105° |
| 2026-05-05 21:16 | 43.09000 | 56.54643 | 38894 ft | 541 kts | 105° |
| 2026-05-05 21:16 | 43.07739 | 56.64781 | 38877 ft | 541 kts | 105° |
| 2026-05-05 21:17 | 43.06471 | 56.74900 | 38894 ft | 539 kts | 105° |
| 2026-05-05 21:17 | 43.05191 | 56.85021 | 38882 ft | 541 kts | 104° |
| 2026-05-05 21:18 | 43.03910 | 56.95079 | 38898 ft | 541 kts | 104° |
| 2026-05-05 21:18 | 43.02610 | 57.05214 | 38892 ft | 541 kts | 104° |
| 2026-05-05 21:19 | 43.01302 | 57.15336 | 38887 ft | 541 kts | 104° |
| 2026-05-05 21:19 | 42.99993 | 57.25395 | 38887 ft | 542 kts | 104° |
| 2026-05-05 21:20 | 42.98665 | 57.35527 | 38884 ft | 542 kts | 104° |
| 2026-05-05 21:20 | 42.97327 | 57.45663 | 38884 ft | 542 kts | 104° |
| 2026-05-05 21:21 | 42.95982 | 57.55782 | 38884 ft | 542 kts | 104° |
| 2026-05-05 21:21 | 42.94626 | 57.65911 | 38880 ft | 542 kts | 104° |
| 2026-05-05 21:22 | 42.93272 | 57.75951 | 38878 ft | 542 kts | 104° |
| 2026-05-05 21:22 | 42.91897 | 57.86078 | 38878 ft | 543 kts | 104° |
| 2026-05-05 21:23 | 42.90513 | 57.96203 | 38878 ft | 543 kts | 104° |
| 2026-05-05 21:23 | 42.89119 | 58.06332 | 38869 ft | 543 kts | 104° |
| 2026-05-05 21:24 | 42.87725 | 58.16394 | 38874 ft | 544 kts | 104° |
| 2026-05-05 21:24 | 42.86311 | 58.26529 | 38878 ft | 544 kts | 104° |
| 2026-05-05 21:25 | 42.84886 | 58.36673 | 38878 ft | 546 kts | 103° |
| 2026-05-05 21:25 | 42.83449 | 58.46835 | 38878 ft | 546 kts | 103° |
| 2026-05-05 21:26 | 42.82013 | 58.56919 | 38876 ft | 546 kts | 103° |
| 2026-05-05 21:26 | 42.80561 | 58.67054 | 38875 ft | 545 kts | 103° |
| 2026-05-05 21:27 | 42.79100 | 58.77181 | 38876 ft | 545 kts | 103° |
| 2026-05-05 21:27 | 42.77633 | 58.87289 | 38878 ft | 543 kts | 103° |
| 2026-05-05 21:28 | 42.76170 | 58.97293 | 38879 ft | 542 kts | 103° |
| 2026-05-05 21:28 | 42.74684 | 59.07341 | 38881 ft | 542 kts | 103° |
| 2026-05-05 21:29 | 42.73180 | 59.17390 | 38881 ft | 542 kts | 104° |
| 2026-05-05 21:29 | 42.71634 | 59.27421 | 38884 ft | 542 kts | 104° |
| 2026-05-05 21:30 | 42.70090 | 59.37368 | 38884 ft | 540 kts | 103° |
| 2026-05-05 21:30 | 42.68539 | 59.47344 | 38889 ft | 539 kts | 103° |
| 2026-05-05 21:31 | 42.66985 | 59.57301 | 38883 ft | 538 kts | 103° |
| 2026-05-05 21:31 | 42.65425 | 59.67240 | 38890 ft | 538 kts | 103° |
| 2026-05-05 21:32 | 42.63866 | 59.77108 | 38890 ft | 538 kts | 104° |
| 2026-05-05 21:32 | 42.62288 | 59.87034 | 38892 ft | 537 kts | 103° |
| 2026-05-05 21:33 | 42.60707 | 59.96928 | 38892 ft | 536 kts | 104° |
| 2026-05-05 21:33 | 42.59120 | 60.06796 | 38892 ft | 535 kts | 104° |
| 2026-05-05 21:34 | 42.57526 | 60.16651 | 38898 ft | 535 kts | 104° |
| 2026-05-05 21:34 | 42.55934 | 60.26437 | 38898 ft | 535 kts | 104° |
| 2026-05-05 21:35 | 42.54322 | 60.36288 | 38886 ft | 534 kts | 104° |
| 2026-05-05 21:35 | 42.52707 | 60.46105 | 38903 ft | 533 kts | 104° |
| 2026-05-05 21:36 | 42.51086 | 60.55900 | 38908 ft | 532 kts | 104° |
| 2026-05-05 21:36 | 42.49458 | 60.65682 | 38909 ft | 532 kts | 104° |
| 2026-05-05 21:37 | 42.47832 | 60.75399 | 38910 ft | 532 kts | 104° |
| 2026-05-05 21:37 | 42.46188 | 60.85164 | 38914 ft | 531 kts | 104° |
| 2026-05-05 21:38 | 42.44539 | 60.94907 | 38913 ft | 531 kts | 104° |
| 2026-05-05 21:38 | 42.42894 | 61.04575 | 38909 ft | 531 kts | 104° |
| 2026-05-05 21:39 | 42.41229 | 61.14304 | 38916 ft | 531 kts | 104° |
| 2026-05-05 21:39 | 42.39556 | 61.24028 | 38904 ft | 530 kts | 104° |
| 2026-05-05 21:40 | 42.37877 | 61.33738 | 38916 ft | 530 kts | 104° |
| 2026-05-05 21:40 | 42.36188 | 61.43448 | 38918 ft | 530 kts | 104° |
| 2026-05-05 21:41 | 42.34503 | 61.53086 | 38913 ft | 530 kts | 104° |
| 2026-05-05 21:41 | 42.32798 | 61.62787 | 38916 ft | 530 kts | 104° |
| 2026-05-05 21:42 | 42.31085 | 61.72478 | 38913 ft | 530 kts | 104° |
| 2026-05-05 21:42 | 42.29376 | 61.82095 | 38921 ft | 530 kts | 104° |
| 2026-05-05 21:43 | 42.27648 | 61.91776 | 38916 ft | 530 kts | 104° |
| 2026-05-05 21:43 | 42.25911 | 62.01448 | 38926 ft | 530 kts | 104° |
| 2026-05-05 21:44 | 42.24167 | 62.11116 | 38920 ft | 530 kts | 104° |
| 2026-05-05 21:44 | 42.22414 | 62.20773 | 38927 ft | 529 kts | 104° |
| 2026-05-05 21:45 | 42.20670 | 62.30343 | 38929 ft | 529 kts | 104° |
| 2026-05-05 21:45 | 42.18905 | 62.39971 | 38929 ft | 529 kts | 104° |
| 2026-05-05 21:46 | 42.17134 | 62.49588 | 38926 ft | 529 kts | 104° |
| 2026-05-05 21:46 | 42.15354 | 62.59199 | 38931 ft | 528 kts | 104° |
| 2026-05-05 21:47 | 42.13582 | 62.68721 | 38932 ft | 527 kts | 104° |
| 2026-05-05 21:47 | 42.11790 | 62.78303 | 38939 ft | 527 kts | 104° |
| 2026-05-05 21:48 | 42.10037 | 62.87886 | 38937 ft | 527 kts | 104° |
| 2026-05-05 21:48 | 42.08327 | 62.97489 | 38938 ft | 527 kts | 104° |
| 2026-05-05 21:49 | 42.06601 | 63.07007 | 38938 ft | 527 kts | 104° |
| 2026-05-05 21:49 | 42.04771 | 63.16552 | 38941 ft | 527 kts | 105° |
| 2026-05-05 21:50 | 42.02923 | 63.26081 | 38940 ft | 527 kts | 104° |
| 2026-05-05 21:50 | 42.01078 | 63.35621 | 38947 ft | 527 kts | 104° |
| 2026-05-05 21:51 | 41.99245 | 63.45093 | 38947 ft | 527 kts | 104° |
| 2026-05-05 21:51 | 41.97394 | 63.54621 | 38949 ft | 527 kts | 105° |
| 2026-05-05 21:52 | 41.94602 | 63.68906 | 38960 ft | 527 kts | 104° |
| 2026-05-05 21:53 | 41.92731 | 63.78415 | 38950 ft | 527 kts | 105° |
| 2026-05-05 21:53 | 41.90861 | 63.87874 | 38950 ft | 527 kts | 105° |
| 2026-05-05 21:54 | 41.88975 | 63.97370 | 38959 ft | 526 kts | 105° |
| 2026-05-05 21:54 | 41.87083 | 64.06854 | 38975 ft | 527 kts | 105° |
| 2026-05-05 21:55 | 41.85189 | 64.16301 | 38964 ft | 528 kts | 105° |
| 2026-05-05 21:55 | 41.83274 | 64.25812 | 38971 ft | 529 kts | 105° |
| 2026-05-05 21:56 | 41.81351 | 64.35315 | 38970 ft | 528 kts | 105° |
| 2026-05-05 21:56 | 41.79420 | 64.44812 | 38984 ft | 529 kts | 105° |
| 2026-05-05 21:57 | 41.77478 | 64.54317 | 38981 ft | 529 kts | 105° |
| 2026-05-05 21:57 | 41.75738 | 64.63812 | 38982 ft | 529 kts | 100° |
| 2026-05-05 21:58 | 41.74406 | 64.73493 | 38980 ft | 528 kts | 99° |
| 2026-05-05 21:58 | 41.73142 | 64.83178 | 38979 ft | 528 kts | 99° |
| 2026-05-05 21:59 | 41.71878 | 64.92856 | 38978 ft | 528 kts | 99° |
| 2026-05-05 21:59 | 41.70607 | 65.02453 | 38983 ft | 528 kts | 99° |
| 2026-05-05 22:00 | 41.69313 | 65.12120 | 38982 ft | 528 kts | 99° |
| 2026-05-05 22:00 | 41.68010 | 65.21785 | 38985 ft | 528 kts | 99° |
| 2026-05-05 22:01 | 41.66698 | 65.31448 | 38989 ft | 528 kts | 99° |
| 2026-05-05 22:01 | 41.65388 | 65.41034 | 38982 ft | 528 kts | 99° |
| 2026-05-05 22:02 | 41.64062 | 65.50679 | 38982 ft | 527 kts | 99° |
| 2026-05-05 22:02 | 41.62728 | 65.60326 | 38982 ft | 528 kts | 99° |
| 2026-05-05 22:03 | 41.61385 | 65.69970 | 38986 ft | 528 kts | 99° |
| 2026-05-05 22:03 | 41.60043 | 65.79550 | 38986 ft | 528 kts | 99° |
| 2026-05-05 22:04 | 41.58685 | 65.89188 | 38988 ft | 528 kts | 99° |
| 2026-05-05 22:04 | 41.57315 | 65.98821 | 38988 ft | 528 kts | 99° |
| 2026-05-05 22:05 | 41.55936 | 66.08442 | 38986 ft | 527 kts | 99° |
| 2026-05-05 22:05 | 41.54552 | 66.18053 | 38991 ft | 527 kts | 99° |
| 2026-05-05 22:06 | 41.53168 | 66.27601 | 38997 ft | 527 kts | 99° |
| 2026-05-05 22:06 | 41.51770 | 66.37197 | 38988 ft | 526 kts | 99° |
| 2026-05-05 22:07 | 41.50365 | 66.46779 | 38996 ft | 526 kts | 99° |
| 2026-05-05 22:07 | 41.48952 | 66.56354 | 38996 ft | 526 kts | 99° |
| 2026-05-05 22:08 | 41.47551 | 66.65858 | 38997 ft | 526 kts | 99° |
| 2026-05-05 22:08 | 41.46163 | 66.75425 | 38999 ft | 526 kts | 99° |
| 2026-05-05 22:09 | 41.44770 | 66.84991 | 38999 ft | 526 kts | 99° |
| 2026-05-05 22:09 | 41.43376 | 66.94487 | 39001 ft | 526 kts | 99° |
| 2026-05-05 22:10 | 41.41961 | 67.04048 | 39002 ft | 526 kts | 99° |
| 2026-05-05 22:10 | 41.40538 | 67.13608 | 39000 ft | 526 kts | 99° |
| 2026-05-05 22:11 | 41.39107 | 67.23160 | 39012 ft | 526 kts | 99° |
| 2026-05-05 22:11 | 41.37678 | 67.32643 | 39006 ft | 525 kts | 99° |
| 2026-05-05 22:12 | 41.36234 | 67.42173 | 39001 ft | 525 kts | 99° |
| 2026-05-05 22:12 | 41.34781 | 67.51706 | 39004 ft | 526 kts | 99° |
| 2026-05-05 22:13 | 41.33319 | 67.61238 | 39011 ft | 525 kts | 99° |
| 2026-05-05 22:13 | 41.31854 | 67.70738 | 39006 ft | 524 kts | 99° |
| 2026-05-05 22:14 | 41.30392 | 67.80160 | 39006 ft | 524 kts | 99° |
| 2026-05-05 22:14 | 41.28913 | 67.89649 | 39006 ft | 524 kts | 99° |
| 2026-05-05 22:15 | 41.27820 | 67.99201 | 39015 ft | 522 kts | 95° |
| 2026-05-05 22:15 | 41.26944 | 68.08786 | 39013 ft | 523 kts | 94° |
| 2026-05-05 22:16 | 41.26098 | 68.18374 | 39012 ft | 523 kts | 94° |
| 2026-05-05 22:16 | 41.25246 | 68.27890 | 39016 ft | 521 kts | 94° |
| 2026-05-05 22:17 | 41.24376 | 68.37446 | 39019 ft | 521 kts | 94° |
| 2026-05-05 22:17 | 41.23495 | 68.46998 | 39020 ft | 521 kts | 94° |
| 2026-05-05 22:18 | 41.22607 | 68.56546 | 39028 ft | 520 kts | 94° |
| 2026-05-05 22:18 | 41.21719 | 68.66001 | 39020 ft | 519 kts | 95° |
| 2026-05-05 22:19 | 41.20818 | 68.75510 | 39022 ft | 519 kts | 95° |
| 2026-05-05 22:19 | 41.19910 | 68.85011 | 39028 ft | 519 kts | 95° |
| 2026-05-05 22:20 | 41.19222 | 68.94519 | 39024 ft | 516 kts | 90° |
| 2026-05-05 22:20 | 41.18927 | 69.03964 | 39036 ft | 515 kts | 89° |
| 2026-05-05 22:21 | 41.18689 | 69.13466 | 39035 ft | 515 kts | 89° |
| 2026-05-05 22:21 | 41.18448 | 69.22968 | 39043 ft | 515 kts | 89° |
| 2026-05-05 22:22 | 41.17862 | 69.32445 | 39045 ft | 516 kts | 94° |
| 2026-05-05 22:22 | 41.16983 | 69.41826 | 39058 ft | 516 kts | 95° |
| 2026-05-05 22:23 | 41.16120 | 69.51278 | 39048 ft | 515 kts | 94° |
| 2026-05-05 22:23 | 41.15312 | 69.60717 | 39067 ft | 515 kts | 94° |
| 2026-05-05 22:24 | 41.14522 | 69.70153 | 39089 ft | 514 kts | 94° |
| 2026-05-05 22:24 | 41.13732 | 69.79510 | 39089 ft | 514 kts | 94° |
| 2026-05-05 22:25 | 41.12925 | 69.88933 | 39115 ft | 514 kts | 94° |
| 2026-05-05 22:25 | 41.12111 | 69.98363 | 39129 ft | 515 kts | 94° |
| 2026-05-05 22:26 | 41.11286 | 70.07797 | 39146 ft | 515 kts | 94° |
| 2026-05-05 22:26 | 41.10454 | 70.17227 | 39138 ft | 515 kts | 94° |
| 2026-05-05 22:27 | 41.10110 | 70.26603 | 39151 ft | 511 kts | 83° |
| 2026-05-05 22:27 | 41.10658 | 70.35981 | 39154 ft | 510 kts | 82° |
| 2026-05-05 22:28 | 41.11353 | 70.45331 | 39156 ft | 509 kts | 81° |
| 2026-05-05 22:28 | 41.12055 | 70.54675 | 39167 ft | 510 kts | 82° |
| 2026-05-05 22:29 | 41.12727 | 70.63958 | 39140 ft | 508 kts | 82° |
| 2026-05-05 22:29 | 41.13378 | 70.73292 | 39140 ft | 509 kts | 82° |
| 2026-05-05 22:30 | 41.14031 | 70.82639 | 39137 ft | 509 kts | 82° |
| 2026-05-05 22:30 | 41.14675 | 70.91985 | 39129 ft | 508 kts | 82° |
| 2026-05-05 22:31 | 41.15303 | 71.01253 | 39123 ft | 507 kts | 82° |
| 2026-05-05 22:31 | 41.15927 | 71.10570 | 39117 ft | 507 kts | 82° |
| 2026-05-05 22:32 | 41.16542 | 71.19889 | 39101 ft | 507 kts | 82° |
| 2026-05-05 22:32 | 41.17150 | 71.29209 | 39100 ft | 507 kts | 82° |
| 2026-05-05 22:33 | 41.17752 | 71.38530 | 39093 ft | 507 kts | 82° |
| 2026-05-05 22:33 | 41.18341 | 71.47791 | 39099 ft | 507 kts | 82° |
| 2026-05-05 22:34 | 41.18928 | 71.57121 | 39098 ft | 507 kts | 83° |
| 2026-05-05 22:34 | 41.19506 | 71.66442 | 39083 ft | 506 kts | 83° |
| 2026-05-05 22:35 | 41.20076 | 71.75751 | 39089 ft | 506 kts | 83° |
| 2026-05-05 22:35 | 41.20636 | 71.85001 | 39089 ft | 506 kts | 83° |
| 2026-05-05 22:36 | 41.21187 | 71.94314 | 39094 ft | 506 kts | 83° |
| 2026-05-05 22:36 | 41.21729 | 72.03624 | 39102 ft | 505 kts | 83° |
| 2026-05-05 22:37 | 41.22264 | 72.12933 | 39108 ft | 505 kts | 83° |
| 2026-05-05 22:37 | 41.22789 | 72.22179 | 39109 ft | 505 kts | 83° |
| 2026-05-05 22:38 | 41.23315 | 72.31477 | 39103 ft | 504 kts | 83° |
| 2026-05-05 22:38 | 41.23836 | 72.40760 | 39118 ft | 503 kts | 83° |
| 2026-05-05 22:39 | 41.24351 | 72.50032 | 39122 ft | 503 kts | 83° |
| 2026-05-05 22:39 | 41.24854 | 72.59244 | 39129 ft | 503 kts | 83° |
| 2026-05-05 22:40 | 41.25350 | 72.68519 | 39144 ft | 503 kts | 83° |
| 2026-05-05 22:40 | 41.25831 | 72.77785 | 39143 ft | 503 kts | 84° |
| 2026-05-05 22:41 | 41.26303 | 72.87048 | 39152 ft | 503 kts | 84° |
| 2026-05-05 22:41 | 41.26767 | 72.96249 | 39171 ft | 502 kts | 84° |
| 2026-05-05 22:42 | 41.27227 | 73.05509 | 39162 ft | 501 kts | 84° |
| 2026-05-05 22:42 | 41.27678 | 73.14751 | 39162 ft | 501 kts | 84° |
| 2026-05-05 22:43 | 41.28123 | 73.23993 | 39172 ft | 501 kts | 84° |
| 2026-05-05 22:43 | 41.28560 | 73.33248 | 39173 ft | 501 kts | 84° |
| 2026-05-05 22:44 | 41.28985 | 73.42418 | 39187 ft | 500 kts | 84° |
| 2026-05-05 22:44 | 41.29405 | 73.51630 | 39193 ft | 499 kts | 84° |
| 2026-05-05 22:45 | 41.29819 | 73.60865 | 39204 ft | 501 kts | 84° |
| 2026-05-05 22:45 | 41.30226 | 73.70095 | 39210 ft | 499 kts | 84° |
| 2026-05-05 22:46 | 41.30623 | 73.79286 | 39212 ft | 497 kts | 84° |
| 2026-05-05 22:46 | 41.31010 | 73.88405 | 39216 ft | 497 kts | 84° |
| 2026-05-05 22:47 | 41.31392 | 73.97582 | 39229 ft | 497 kts | 84° |
| 2026-05-05 22:47 | 41.31856 | 74.06753 | 39225 ft | 496 kts | 82° |
| 2026-05-05 22:48 | 41.32554 | 74.15868 | 39228 ft | 495 kts | 82° |
| 2026-05-05 22:48 | 41.33258 | 74.24909 | 39238 ft | 495 kts | 82° |
| 2026-05-05 22:49 | 41.33925 | 74.34028 | 39240 ft | 495 kts | 82° |
| 2026-05-05 22:49 | 41.34563 | 74.43153 | 39248 ft | 496 kts | 82° |
| 2026-05-05 22:50 | 41.35186 | 74.52229 | 39248 ft | 496 kts | 82° |
| 2026-05-05 22:50 | 41.35808 | 74.61357 | 39256 ft | 495 kts | 82° |
| 2026-05-05 22:51 | 41.36424 | 74.70494 | 39258 ft | 496 kts | 82° |
| 2026-05-05 22:51 | 41.37033 | 74.79629 | 39270 ft | 496 kts | 82° |
| 2026-05-05 22:52 | 41.37630 | 74.88703 | 39270 ft | 496 kts | 82° |
| 2026-05-05 22:52 | 41.38227 | 74.97847 | 39268 ft | 496 kts | 83° |
| 2026-05-05 22:53 | 41.38812 | 75.06988 | 39284 ft | 496 kts | 83° |
| 2026-05-05 22:53 | 41.39391 | 75.16144 | 39274 ft | 497 kts | 83° |
| 2026-05-05 22:54 | 41.39961 | 75.25249 | 39281 ft | 497 kts | 83° |
| 2026-05-05 22:54 | 41.40527 | 75.34418 | 39282 ft | 497 kts | 83° |
| 2026-05-05 22:55 | 41.41086 | 75.43591 | 39287 ft | 497 kts | 83° |
| 2026-05-05 22:55 | 41.41639 | 75.52768 | 39276 ft | 497 kts | 83° |
| 2026-05-05 22:56 | 41.42183 | 75.61941 | 39276 ft | 497 kts | 83° |
| 2026-05-05 22:56 | 41.42717 | 75.71059 | 39271 ft | 497 kts | 83° |
| 2026-05-05 22:57 | 41.43252 | 75.80234 | 39270 ft | 497 kts | 83° |
| 2026-05-05 22:57 | 41.43775 | 75.89414 | 39263 ft | 496 kts | 83° |
| 2026-05-05 22:58 | 41.44290 | 75.98592 | 39263 ft | 496 kts | 84° |
| 2026-05-05 22:58 | 41.44795 | 76.07702 | 39263 ft | 496 kts | 84° |
| 2026-05-05 22:59 | 41.45298 | 76.16877 | 39266 ft | 496 kts | 84° |
| 2026-05-05 22:59 | 41.45792 | 76.26046 | 39248 ft | 495 kts | 84° |
| 2026-05-05 23:00 | 41.46519 | 76.39788 | 39271 ft | 495 kts | 84° |
| 2026-05-05 23:00 | 41.46992 | 76.48893 | 39271 ft | 496 kts | 84° |
| 2026-05-05 23:01 | 41.47460 | 76.58057 | 39264 ft | 495 kts | 84° |
| 2026-05-05 23:01 | 41.47921 | 76.67209 | 39268 ft | 495 kts | 84° |
| 2026-05-05 23:02 | 41.48378 | 76.76364 | 39271 ft | 495 kts | 84° |
| 2026-05-05 23:02 | 41.48822 | 76.85461 | 39273 ft | 495 kts | 84° |
| 2026-05-05 23:03 | 41.49257 | 76.94603 | 39279 ft | 493 kts | 85° |
| 2026-05-05 23:03 | 41.49685 | 77.03717 | 39278 ft | 492 kts | 85° |
| 2026-05-05 23:04 | 41.50106 | 77.12819 | 39281 ft | 492 kts | 85° |
| 2026-05-05 23:04 | 41.50518 | 77.21867 | 39276 ft | 492 kts | 85° |
| 2026-05-05 23:05 | 41.50926 | 77.30971 | 39276 ft | 491 kts | 85° |
| 2026-05-05 23:05 | 41.51326 | 77.40062 | 39275 ft | 491 kts | 85° |
| 2026-05-05 23:06 | 41.51718 | 77.49163 | 39275 ft | 491 kts | 85° |
| 2026-05-05 23:06 | 41.52104 | 77.58264 | 39268 ft | 491 kts | 85° |
| 2026-05-05 23:07 | 41.52480 | 77.67303 | 39261 ft | 491 kts | 86° |
| 2026-05-05 23:07 | 41.52851 | 77.76405 | 39258 ft | 491 kts | 86° |
| 2026-05-05 23:08 | 41.53215 | 77.85516 | 39256 ft | 491 kts | 86° |
| 2026-05-05 23:08 | 41.53572 | 77.94621 | 39262 ft | 491 kts | 86° |
| 2026-05-05 23:09 | 41.53919 | 78.03662 | 39261 ft | 491 kts | 86° |
| 2026-05-05 23:09 | 41.54262 | 78.12766 | 39261 ft | 491 kts | 86° |
| 2026-05-05 23:10 | 41.54597 | 78.21860 | 39261 ft | 491 kts | 86° |
| 2026-05-05 23:10 | 41.54926 | 78.30957 | 39260 ft | 491 kts | 86° |
| 2026-05-05 23:11 | 41.55246 | 78.40058 | 39259 ft | 491 kts | 86° |
| 2026-05-05 23:11 | 41.55558 | 78.49099 | 39265 ft | 491 kts | 86° |
| 2026-05-05 23:12 | 41.55863 | 78.58202 | 39260 ft | 491 kts | 86° |
| 2026-05-05 23:12 | 41.56161 | 78.67302 | 39262 ft | 491 kts | 86° |
| 2026-05-05 23:13 | 41.56452 | 78.76334 | 39255 ft | 490 kts | 86° |
| 2026-05-05 23:13 | 41.56113 | 78.85403 | 39230 ft | 491 kts | 100° |
| 2026-05-05 23:14 | 41.54571 | 78.94294 | 39237 ft | 492 kts | 104° |
| 2026-05-05 23:14 | 41.52803 | 79.03124 | 39212 ft | 493 kts | 104° |
| 2026-05-05 23:15 | 41.51019 | 79.11875 | 39196 ft | 492 kts | 104° |
| 2026-05-05 23:15 | 41.49238 | 79.20682 | 39177 ft | 491 kts | 104° |
| 2026-05-05 23:16 | 41.47465 | 79.29481 | 39153 ft | 491 kts | 104° |
| 2026-05-05 23:16 | 41.45691 | 79.38271 | 39150 ft | 491 kts | 104° |
| 2026-05-05 23:17 | 41.43923 | 79.46989 | 39136 ft | 491 kts | 104° |
| 2026-05-05 23:17 | 41.42135 | 79.55761 | 39128 ft | 490 kts | 104° |
| 2026-05-05 23:18 | 41.40341 | 79.64526 | 39126 ft | 490 kts | 104° |
| 2026-05-05 23:18 | 41.38539 | 79.73293 | 39114 ft | 490 kts | 104° |
| 2026-05-05 23:19 | 41.36732 | 79.82046 | 39112 ft | 491 kts | 104° |
| 2026-05-05 23:19 | 41.34928 | 79.90749 | 39115 ft | 491 kts | 104° |
| 2026-05-05 23:20 | 41.33103 | 79.99516 | 39108 ft | 492 kts | 105° |
| 2026-05-05 23:20 | 41.31271 | 80.08280 | 39107 ft | 492 kts | 105° |
| 2026-05-05 23:21 | 41.29433 | 80.17032 | 39106 ft | 492 kts | 105° |
| 2026-05-05 23:21 | 41.27598 | 80.25742 | 39098 ft | 493 kts | 105° |
| 2026-05-05 23:22 | 41.25739 | 80.34532 | 39096 ft | 494 kts | 105° |
| 2026-05-05 23:22 | 41.23864 | 80.43315 | 39096 ft | 494 kts | 105° |
| 2026-05-05 23:23 | 41.21973 | 80.52088 | 39091 ft | 494 kts | 105° |
| 2026-05-05 23:23 | 41.20087 | 80.60809 | 39090 ft | 496 kts | 105° |
| 2026-05-05 23:24 | 41.18179 | 80.69613 | 39078 ft | 496 kts | 106° |
| 2026-05-05 23:24 | 41.16263 | 80.78424 | 39080 ft | 497 kts | 106° |
| 2026-05-05 23:25 | 41.14336 | 80.87247 | 39078 ft | 498 kts | 106° |
| 2026-05-05 23:25 | 41.12415 | 80.96003 | 39072 ft | 498 kts | 106° |
| 2026-05-05 23:26 | 41.10471 | 81.04831 | 39075 ft | 499 kts | 106° |
| 2026-05-05 23:26 | 41.08518 | 81.13663 | 39072 ft | 499 kts | 106° |
| 2026-05-05 23:27 | 41.06559 | 81.22489 | 39072 ft | 499 kts | 106° |
| 2026-05-05 23:27 | 41.04594 | 81.31304 | 39076 ft | 499 kts | 106° |
| 2026-05-05 23:28 | 41.02629 | 81.40084 | 39064 ft | 501 kts | 106° |
| 2026-05-05 23:28 | 41.00642 | 81.48932 | 39068 ft | 502 kts | 107° |
| 2026-05-05 23:29 | 40.98642 | 81.57797 | 39073 ft | 503 kts | 107° |
| 2026-05-05 23:29 | 40.96634 | 81.66661 | 39082 ft | 503 kts | 107° |
| 2026-05-05 23:30 | 40.95104 | 81.74088 | 39072 ft | 504 kts | 104° |
| 2026-05-05 23:30 | 40.93189 | 81.84582 | 39078 ft | 505 kts | 103° |
| 2026-05-05 23:31 | 40.91526 | 81.93599 | 39077 ft | 505 kts | 104° |
| 2026-05-05 23:31 | 40.89818 | 82.02600 | 39076 ft | 505 kts | 104° |
| 2026-05-05 23:32 | 40.88100 | 82.11530 | 39077 ft | 505 kts | 104° |
| 2026-05-05 23:32 | 40.86362 | 82.20517 | 39077 ft | 505 kts | 104° |
| 2026-05-05 23:33 | 40.84618 | 82.29495 | 39081 ft | 505 kts | 104° |
| 2026-05-05 23:33 | 40.82869 | 82.38472 | 39075 ft | 505 kts | 104° |
| 2026-05-05 23:34 | 40.81112 | 82.47444 | 39073 ft | 505 kts | 104° |
| 2026-05-05 23:34 | 40.79358 | 82.56366 | 39072 ft | 506 kts | 105° |
| 2026-05-05 23:35 | 40.77585 | 82.65339 | 39070 ft | 506 kts | 105° |
| 2026-05-05 23:35 | 40.75804 | 82.74314 | 39069 ft | 506 kts | 105° |
| 2026-05-05 23:36 | 40.74017 | 82.83282 | 39069 ft | 506 kts | 105° |
| 2026-05-05 23:36 | 40.72232 | 82.92199 | 39069 ft | 507 kts | 105° |
| 2026-05-05 23:37 | 40.70427 | 83.01178 | 39065 ft | 507 kts | 105° |
| 2026-05-05 23:37 | 40.68610 | 83.10174 | 39067 ft | 509 kts | 105° |
| 2026-05-05 23:38 | 40.66784 | 83.19178 | 39068 ft | 509 kts | 105° |
| 2026-05-05 23:38 | 40.64946 | 83.28201 | 39066 ft | 510 kts | 105° |
| 2026-05-05 23:39 | 40.63112 | 83.37164 | 39065 ft | 510 kts | 105° |
| 2026-05-05 23:39 | 40.61260 | 83.46176 | 39064 ft | 510 kts | 105° |
| 2026-05-05 23:40 | 40.59401 | 83.55185 | 39068 ft | 510 kts | 105° |
| 2026-05-05 23:40 | 40.57531 | 83.64207 | 39067 ft | 512 kts | 105° |
| 2026-05-05 23:41 | 40.55663 | 83.73178 | 39058 ft | 512 kts | 105° |
| 2026-05-05 23:41 | 40.53776 | 83.82207 | 39056 ft | 512 kts | 106° |
| 2026-05-05 23:42 | 40.51882 | 83.91227 | 39059 ft | 513 kts | 106° |
| 2026-05-05 23:42 | 40.50006 | 84.00276 | 39057 ft | 513 kts | 105° |
| 2026-05-05 23:43 | 40.48192 | 84.09285 | 39051 ft | 514 kts | 105° |
| 2026-05-05 23:43 | 40.46362 | 84.18350 | 39050 ft | 514 kts | 105° |
| 2026-05-05 23:44 | 40.44515 | 84.27411 | 39050 ft | 513 kts | 106° |
| 2026-05-05 23:44 | 40.42656 | 84.36464 | 39051 ft | 514 kts | 106° |
| 2026-05-05 23:45 | 40.40800 | 84.45458 | 39045 ft | 514 kts | 106° |
| 2026-05-05 23:45 | 40.38923 | 84.54516 | 39045 ft | 514 kts | 106° |
| 2026-05-05 23:46 | 40.37040 | 84.63566 | 39045 ft | 514 kts | 106° |
| 2026-05-05 23:46 | 40.35150 | 84.72612 | 39043 ft | 516 kts | 106° |
| 2026-05-05 23:47 | 40.33255 | 84.81645 | 39045 ft | 519 kts | 106° |
| 2026-05-05 23:47 | 40.31332 | 84.90770 | 39048 ft | 520 kts | 106° |
| 2026-05-05 23:48 | 40.29402 | 84.99889 | 39051 ft | 520 kts | 107° |
| 2026-05-05 23:48 | 40.27464 | 85.09007 | 39046 ft | 520 kts | 107° |
| 2026-05-05 23:49 | 40.25526 | 85.18084 | 39050 ft | 522 kts | 107° |
| 2026-05-05 23:49 | 40.23564 | 85.27235 | 39051 ft | 522 kts | 107° |
| 2026-05-05 23:50 | 40.21597 | 85.36373 | 39051 ft | 522 kts | 107° |
| 2026-05-05 23:50 | 40.19623 | 85.45505 | 39053 ft | 522 kts | 107° |
| 2026-05-05 23:51 | 40.17651 | 85.54585 | 39053 ft | 523 kts | 107° |
| 2026-05-05 23:51 | 40.15656 | 85.63740 | 39054 ft | 524 kts | 107° |
| 2026-05-05 23:52 | 40.13650 | 85.72904 | 39058 ft | 525 kts | 107° |
| 2026-05-05 23:52 | 40.11633 | 85.82075 | 39055 ft | 525 kts | 107° |
| 2026-05-05 23:53 | 40.09623 | 85.91178 | 39058 ft | 525 kts | 107° |
| 2026-05-05 23:53 | 40.07593 | 86.00339 | 39060 ft | 525 kts | 107° |
| 2026-05-05 23:54 | 40.05313 | 86.09381 | 39053 ft | 524 kts | 111° |
| 2026-05-05 23:54 | 40.02786 | 86.18300 | 39057 ft | 524 kts | 111° |
| 2026-05-05 23:55 | 40.00271 | 86.27238 | 39056 ft | 525 kts | 111° |
| 2026-05-05 23:55 | 39.97809 | 86.36147 | 39056 ft | 526 kts | 111° |
| 2026-05-05 23:56 | 39.95341 | 86.45131 | 39059 ft | 527 kts | 111° |
| 2026-05-05 23:56 | 39.92861 | 86.54130 | 39057 ft | 528 kts | 111° |
| 2026-05-05 23:57 | 39.90390 | 86.63060 | 39062 ft | 528 kts | 111° |
| 2026-05-05 23:57 | 39.87889 | 86.72063 | 39059 ft | 529 kts | 111° |
| 2026-05-05 23:58 | 39.85382 | 86.81053 | 39057 ft | 529 kts | 111° |
| 2026-05-05 23:58 | 39.82866 | 86.90042 | 39058 ft | 529 kts | 111° |
| 2026-05-05 23:59 | 39.80770 | 86.97511 | 39059 ft | 529 kts | 112° |
| 2026-05-05 23:59 | 39.77823 | 87.07970 | 39060 ft | 531 kts | 112° |
| 2026-05-06 00:00 | 39.75277 | 87.16974 | 39056 ft | 531 kts | 112° |
| 2026-05-06 00:00 | 39.73153 | 87.24461 | 39062 ft | 532 kts | 112° |
| 2026-05-06 00:01 | 39.70588 | 87.33476 | 39059 ft | 532 kts | 112° |
| 2026-05-06 00:01 | 39.67597 | 87.43948 | 39057 ft | 532 kts | 112° |
| 2026-05-06 00:02 | 39.65451 | 87.51436 | 39054 ft | 532 kts | 112° |
| 2026-05-06 00:02 | 39.62863 | 87.60438 | 39049 ft | 533 kts | 112° |
| 2026-05-06 00:03 | 39.60269 | 87.69431 | 39053 ft | 533 kts | 112° |
| 2026-05-06 00:03 | 39.57665 | 87.78426 | 39051 ft | 533 kts | 112° |
| 2026-05-06 00:04 | 39.55054 | 87.87415 | 39040 ft | 533 kts | 113° |
| 2026-05-06 00:04 | 39.52454 | 87.96334 | 39050 ft | 532 kts | 113° |
| 2026-05-06 00:05 | 39.48518 | 88.09784 | 39044 ft | 533 kts | 113° |
| 2026-05-06 00:06 | 39.45888 | 88.18732 | 39042 ft | 532 kts | 114° |
| 2026-05-06 00:06 | 39.43250 | 88.27678 | 39048 ft | 532 kts | 114° |
| 2026-05-06 00:07 | 39.40625 | 88.36546 | 39045 ft | 532 kts | 114° |
| 2026-05-06 00:07 | 39.37975 | 88.45472 | 39042 ft | 532 kts | 114° |
| 2026-05-06 00:08 | 39.35321 | 88.54387 | 39047 ft | 531 kts | 114° |
| 2026-05-06 00:08 | 39.32661 | 88.63290 | 39048 ft | 531 kts | 115° |
| 2026-05-06 00:09 | 39.30014 | 88.72116 | 39049 ft | 530 kts | 115° |
| 2026-05-06 00:09 | 39.27344 | 88.80986 | 39059 ft | 530 kts | 115° |
| 2026-05-06 00:10 | 39.24669 | 88.89852 | 39058 ft | 530 kts | 115° |
| 2026-05-06 00:10 | 39.21985 | 88.98714 | 39064 ft | 531 kts | 115° |
| 2026-05-06 00:11 | 39.19310 | 89.07519 | 39064 ft | 531 kts | 115° |
| 2026-05-06 00:11 | 39.16612 | 89.16370 | 39073 ft | 531 kts | 115° |
| 2026-05-06 00:12 | 39.13908 | 89.25214 | 39071 ft | 531 kts | 115° |
| 2026-05-06 00:12 | 39.11197 | 89.34051 | 39087 ft | 530 kts | 115° |
| 2026-05-06 00:13 | 39.08500 | 89.42814 | 39099 ft | 530 kts | 115° |
| 2026-05-06 00:13 | 39.05783 | 89.51616 | 39102 ft | 529 kts | 115° |
| 2026-05-06 00:14 | 39.03057 | 89.60415 | 39108 ft | 529 kts | 115° |
| 2026-05-06 00:14 | 39.00328 | 89.69198 | 39132 ft | 529 kts | 115° |
| 2026-05-06 00:15 | 38.97606 | 89.77922 | 39133 ft | 530 kts | 115° |
| 2026-05-06 00:15 | 38.94853 | 89.86689 | 39134 ft | 529 kts | 115° |
| 2026-05-06 00:16 | 38.92112 | 89.95451 | 39151 ft | 529 kts | 115° |
| 2026-05-06 00:16 | 38.89360 | 90.04215 | 39159 ft | 529 kts | 115° |
| 2026-05-06 00:17 | 38.86617 | 90.12908 | 39159 ft | 529 kts | 116° |
| 2026-05-06 00:17 | 38.83851 | 90.21655 | 39182 ft | 529 kts | 116° |
| 2026-05-06 00:18 | 38.81076 | 90.30392 | 39185 ft | 529 kts | 116° |
| 2026-05-06 00:18 | 38.78293 | 90.39124 | 39192 ft | 529 kts | 116° |
| 2026-05-06 00:19 | 38.75501 | 90.47856 | 39187 ft | 530 kts | 116° |
| 2026-05-06 00:19 | 38.72717 | 90.56540 | 39187 ft | 530 kts | 116° |
| 2026-05-06 00:20 | 38.69912 | 90.65269 | 39186 ft | 530 kts | 116° |
| 2026-05-06 00:20 | 38.67134 | 90.74020 | 39189 ft | 531 kts | 114° |
| 2026-05-06 00:21 | 38.64652 | 90.82930 | 39185 ft | 532 kts | 112° |
| 2026-05-06 00:21 | 38.62254 | 90.91821 | 39182 ft | 532 kts | 112° |
| 2026-05-06 00:22 | 38.59795 | 91.00740 | 39181 ft | 532 kts | 112° |
| 2026-05-06 00:22 | 38.57296 | 91.09644 | 39182 ft | 532 kts | 113° |
| 2026-05-06 00:23 | 38.54783 | 91.18536 | 39174 ft | 532 kts | 113° |